Darstellungsparameter: Aktuell verwendete Einstellungen:
Skalierung der Graphiken ... ?
xyx+y,   Skalierungsfaktor:      Skalierung: Modus: x, Faktor: 1
Darstellungszeitraum ... ?
Vom - - bis: - -   Zeitraum: 06.01.2011 - 19.01.2011
Min/Max/Avg-Anzeige ... ?
Zeige MMA aktuell
Zeige MMA Monat
Zeige MMA alles
Zeige --A aktuell
Zeige --A Monat
Zeige --A alles
Keine MMA-Anzeige
MMA:
Average (ber die Originaldaten)
MMA-Basis: 06.01.2011 - 19.01.2011
Quicknavigation für Darstellung... ?
Tage:      1T, 2T, 3T, 5T -1T -2T -3T -5T +1T +2T +3T +5T
Wochen: 1W, 2W, 3W -1W -2W -3W +1W +2W +3W
Monate: 1M, 3M, 6M -1M -3M -6M +1M +3M +6M
Jahre:    1J, 3J, 5J, 10J -1J -3J -5J -10J +1J +3J +5J +10J
Nutze für die Darstellung ... ?
Originaldaten oder Mittelwerte auf ...
Stundenbasis Tagesbasis Wochenbasis
Monatsbasis Jahresbasis      Datenbasis: Original-Daten
Darstellen als:
Statistik (Auto) Statistik J:M      Darstellung:
Zur Graphik,    zurück zur Übersicht aller Sensoren.
 
Tabellarische Datenbersicht: ?
 
Sensor: Nr:Datum:Temp:Abs-Feuchte:Windchill:Wind:
Aussen-T/F 1 06-01-2011 00:08:04 -0.7 C 3.83 g/m*3 -0.7 C 0 km/h
2 06-01-2011 00:20:04 -0.5 C 3.84 g/m*3 -0.5 C 0 km/h
3 06-01-2011 00:32:04 -0.5 C 3.84 g/m*3 -0.5 C 0 km/h
4 06-01-2011 00:44:04 -0.6 C 3.81 g/m*3 -0.6 C 0 km/h
5 06-01-2011 00:56:04 -0.6 C 3.81 g/m*3 -0.6 C 0 km/h
6 06-01-2011 01:08:04 -0.5 C 3.88 g/m*3 -0.5 C 0 km/h
7 06-01-2011 01:20:04 -0.3 C 3.94 g/m*3 -0.3 C 0 km/h
8 06-01-2011 01:32:04 -0.3 C 3.94 g/m*3 -0.3 C 0 km/h
9 06-01-2011 01:44:04 -0.1 C 3.99 g/m*3 -0.1 C 0 km/h
10 06-01-2011 01:56:04 0.1 C 4.1 g/m*3 0.1 C 0 km/h
11 06-01-2011 02:08:04 0.2 C 4.18 g/m*3 0.2 C 0 km/h
12 06-01-2011 02:20:05 0.3 C 4.25 g/m*3 0.3 C 0 km/h
13 06-01-2011 02:32:05 0.3 C 4.3 g/m*3 0.3 C 0 km/h
14 06-01-2011 02:44:05 0.3 C 4.35 g/m*3 0.3 C 0 km/h
15 06-01-2011 02:56:05 0.4 C 4.38 g/m*3 0.4 C 0 km/h
16 06-01-2011 03:08:05 0.5 C 4.46 g/m*3 0.5 C 0 km/h
17 06-01-2011 03:20:05 0.5 C 4.46 g/m*3 0.5 C 0 km/h
18 06-01-2011 03:32:05 0.8 C 4.61 g/m*3 0.8 C 0 km/h
19 06-01-2011 03:44:05 0.7 C 4.58 g/m*3 0.7 C 0 km/h
20 06-01-2011 03:56:05 0.7 C 4.58 g/m*3 0.7 C 0 km/h
21 06-01-2011 04:08:05 0.8 C 4.66 g/m*3 0.8 C 0 km/h
22 06-01-2011 04:20:05 0.9 C 4.69 g/m*3 0.9 C 0 km/h
23 06-01-2011 04:32:05 0.9 C 4.69 g/m*3 0.9 C 0 km/h
24 06-01-2011 04:44:05 0.9 C 4.69 g/m*3 0.9 C 0 km/h
25 06-01-2011 04:56:05 0.9 C 4.69 g/m*3 0.9 C 0 km/h
Sensor: Nr:Datum:Temp:Abs-Feuchte:Windchill:Wind:
Aussen-T/F 26 06-01-2011 05:08:05 1 C 4.72 g/m*3 1 C 0 km/h
27 06-01-2011 05:20:05 1 C 4.72 g/m*3 1 C 0 km/h
28 06-01-2011 05:32:05 1 C 4.72 g/m*3 1 C 0 km/h
29 06-01-2011 05:44:05 1.1 C 4.76 g/m*3 1.1 C 0 km/h
30 06-01-2011 05:56:05 1.1 C 4.76 g/m*3 1.1 C 0 km/h
31 06-01-2011 06:08:05 1.3 C 4.87 g/m*3 1.3 C 0 km/h
32 06-01-2011 06:20:05 1.2 C 4.84 g/m*3 1.2 C 0 km/h
33 06-01-2011 06:32:06 1.2 C 4.84 g/m*3 1.2 C 0 km/h
34 06-01-2011 06:44:06 1.3 C 4.87 g/m*3 1.3 C 0 km/h
35 06-01-2011 06:56:02 1.3 C 4.87 g/m*3 1.3 C 0 km/h
36 06-01-2011 07:08:03 1.4 C 4.91 g/m*3 1.4 C 0 km/h
37 06-01-2011 07:20:02 1.4 C 4.91 g/m*3 1.4 C 0 km/h
38 06-01-2011 07:32:02 1.3 C 4.87 g/m*3 1.3 C 0 km/h
39 06-01-2011 07:44:02 1.4 C 4.91 g/m*3 1.4 C 0 km/h
40 06-01-2011 07:56:02 1.4 C 4.91 g/m*3 1.4 C 0 km/h
41 06-01-2011 08:08:02 1.4 C 4.91 g/m*3 1.4 C 0 km/h
42 06-01-2011 08:20:01 1.4 C 4.91 g/m*3 1.4 C 0 km/h
43 06-01-2011 08:32:02 1.5 C 4.94 g/m*3 1.5 C 0 km/h
44 06-01-2011 08:44:02 1.5 C 4.94 g/m*3 1.5 C 0 km/h
45 06-01-2011 08:56:02 1.9 C 5.13 g/m*3 1.9 C 0 km/h
46 06-01-2011 09:08:02 2 C 5.11 g/m*3 2 C 0 km/h
47 06-01-2011 09:20:01 2.2 C 5.18 g/m*3 2.2 C 0 km/h
48 06-01-2011 09:32:02 2.3 C 5.22 g/m*3 2.3 C 0 km/h
49 06-01-2011 09:44:02 2.5 C 5.29 g/m*3 2.5 C 0 km/h
50 06-01-2011 09:56:02 3.7 C 5.73 g/m*3 3.7 C 0 km/h
Sensor: Nr:Datum:Temp:Abs-Feuchte:Windchill:Wind:
Aussen-T/F 51 06-01-2011 10:08:03 3.8 C 5.83 g/m*3 3.8 C 0 km/h
52 06-01-2011 10:20:02 4.1 C 5.89 g/m*3 4.1 C 0 km/h
53 06-01-2011 10:32:02 4.4 C 6.01 g/m*3 4.4 C 0 km/h
54 06-01-2011 10:44:02 5.1 C 6.22 g/m*3 5.1 C 0 km/h
55 06-01-2011 10:56:01 5.1 C 6.22 g/m*3 5.1 C 0 km/h
56 06-01-2011 11:08:02 5.5 C 6.32 g/m*3 5.5 C 0 km/h
57 06-01-2011 11:20:01 5.9 C 6.35 g/m*3 5.9 C 0 km/h
58 06-01-2011 11:32:01 6.1 C 6.21 g/m*3 6.1 C 0 km/h
59 06-01-2011 11:44:01 6.3 C 6.22 g/m*3 6.3 C 0 km/h
60 06-01-2011 11:56:01 6.6 C 6.27 g/m*3 6.6 C 0 km/h
61 06-01-2011 12:08:01 5.5 C 5.69 g/m*3 5.5 C 0 km/h
62 06-01-2011 12:20:02 5.2 C 5.71 g/m*3 5.2 C 0 km/h
63 06-01-2011 12:32:01 5.6 C 5.94 g/m*3 5.6 C 0 km/h
64 06-01-2011 12:44:01 5.2 C 5.78 g/m*3 5.2 C 0 km/h
65 06-01-2011 12:56:03 5.2 C 5.85 g/m*3 5.2 C 0 km/h
66 06-01-2011 13:08:02 4.9 C 5.81 g/m*3 4.9 C 0 km/h
67 06-01-2011 13:20:02 4.8 C 5.83 g/m*3 4.8 C 0 km/h
68 06-01-2011 13:32:02 4.5 C 5.65 g/m*3 4.5 C 0 km/h
69 06-01-2011 13:44:02 4.2 C 5.61 g/m*3 4.2 C 0 km/h
70 06-01-2011 13:56:02 4.1 C 5.57 g/m*3 4.1 C 0 km/h
71 06-01-2011 14:08:01 4.3 C 5.64 g/m*3 4.3 C 0 km/h
72 06-01-2011 14:20:02 4.2 C 5.61 g/m*3 4.2 C 0 km/h
73 06-01-2011 14:32:02 4.3 C 5.64 g/m*3 4.3 C 0 km/h
74 06-01-2011 14:44:02 4 C 5.53 g/m*3 4 C 0 km/h
75 06-01-2011 14:56:02 3.8 C 5.52 g/m*3 3.8 C 0 km/h
Sensor: Nr:Datum:Temp:Abs-Feuchte:Windchill:Wind:
Aussen-T/F 76 06-01-2011 15:08:03 3.9 C 5.62 g/m*3 3.9 C 0 km/h
77 06-01-2011 15:20:02 3.8 C 5.58 g/m*3 3.8 C 0 km/h
78 06-01-2011 15:32:02 4 C 5.59 g/m*3 4 C 0 km/h
79 06-01-2011 15:44:02 4 C 5.66 g/m*3 4 C 0 km/h
80 06-01-2011 15:56:01 4 C 5.66 g/m*3 4 C 0 km/h
81 06-01-2011 16:08:02 4 C 5.66 g/m*3 4 C 0 km/h
82 06-01-2011 16:20:01 4.2 C 5.73 g/m*3 4.2 C 0 km/h
83 06-01-2011 16:32:01 4 C 5.66 g/m*3 4 C 0 km/h
84 06-01-2011 16:44:01 3.7 C 5.61 g/m*3 3.7 C 0 km/h
85 06-01-2011 16:56:01 3.7 C 5.61 g/m*3 3.7 C 0 km/h
86 06-01-2011 17:08:02 3.8 C 5.65 g/m*3 3.8 C 0 km/h
87 06-01-2011 17:20:02 4 C 5.72 g/m*3 4 C 0 km/h
88 06-01-2011 17:32:01 4.2 C 5.8 g/m*3 4.2 C 0 km/h
89 06-01-2011 17:44:01 4.1 C 5.76 g/m*3 4.1 C 0 km/h
90 06-01-2011 17:56:01 4.6 C 6.02 g/m*3 4.6 C 0 km/h
91 06-01-2011 18:08:01 4.6 C 6.02 g/m*3 4.6 C 0 km/h
92 06-01-2011 18:20:02 4.3 C 5.9 g/m*3 4.3 C 0 km/h
93 06-01-2011 18:32:01 4.6 C 6.02 g/m*3 4.6 C 0 km/h
94 06-01-2011 18:44:01 4.5 C 5.98 g/m*3 4.5 C 0 km/h
95 06-01-2011 18:56:02 5 C 6.18 g/m*3 5 C 0 km/h
96 06-01-2011 19:08:02 4.7 C 6.13 g/m*3 4.7 C 0 km/h
97 06-01-2011 19:20:02 4.6 C 6.09 g/m*3 4.6 C 0 km/h
98 06-01-2011 19:32:03 4.9 C 6.21 g/m*3 4.9 C 0 km/h
99 06-01-2011 19:44:03 5.3 C 6.31 g/m*3 5.3 C 0 km/h
100 06-01-2011 19:56:02 5.6 C 6.43 g/m*3 5.6 C 0 km/h
Sensor: Nr:Datum:Temp:Abs-Feuchte:Windchill:Wind:
Aussen-T/F 101 06-01-2011 20:08:01 7 C 7.05 g/m*3 7 C 0 km/h
102 06-01-2011 20:20:01 8 C 7.44 g/m*3 8 C 0 km/h
103 06-01-2011 20:32:02 6.7 C 6.91 g/m*3 6.7 C 0 km/h
104 06-01-2011 20:44:02 8.1 C 7.41 g/m*3 8.1 C 0 km/h
105 06-01-2011 20:56:02 7 C 6.9 g/m*3 7 C 0 km/h
106 06-01-2011 21:08:02 7.3 C 7.03 g/m*3 7.3 C 0 km/h
107 06-01-2011 21:20:02 8.2 C 7.37 g/m*3 8.2 C 0 km/h
108 06-01-2011 21:32:02 9 C 7.58 g/m*3 9 C 0 km/h
109 06-01-2011 21:44:02 8.9 C 7.36 g/m*3 8.9 C 0 km/h
110 06-01-2011 21:56:02 9.4 C 7.42 g/m*3 9.4 C 0 km/h
111 06-01-2011 22:08:03 9.2 C 7.14 g/m*3 9.2 C 0 km/h
112 06-01-2011 22:21:04 10 C 7.24 g/m*3 10 C 0 km/h
113 06-01-2011 22:33:04 9.8 C 7.33 g/m*3 9.8 C 0 km/h
114 06-01-2011 22:45:04 9.1 C 6.92 g/m*3 9.1 C 0 km/h
115 06-01-2011 22:57:04 9.4 C 7.05 g/m*3 9.4 C 0 km/h
116 06-01-2011 23:09:04 8.8 C 6.7 g/m*3 8.8 C 0 km/h
117 06-01-2011 23:21:04 9.1 C 6.83 g/m*3 9.1 C 0 km/h
118 06-01-2011 23:33:04 9 C 7.14 g/m*3 9 C 0 km/h
119 06-01-2011 23:45:04 9.7 C 7.47 g/m*3 9.7 C 0 km/h
120 06-01-2011 23:57:04 8.8 C 6.88 g/m*3 8.8 C 0 km/h
121 07-01-2011 00:09:04 8.5 C 6.83 g/m*3 8.5 C 0 km/h
122 07-01-2011 00:21:04 7.6 C 6.61 g/m*3 7.6 C 0 km/h
123 07-01-2011 00:33:04 7 C 6.51 g/m*3 7 C 0 km/h
124 07-01-2011 00:45:04 7.3 C 6.79 g/m*3 7.3 C 0 km/h
125 07-01-2011 00:57:04 6.5 C 6.45 g/m*3 6.5 C 0 km/h
Sensor: Nr:Datum:Temp:Abs-Feuchte:Windchill:Wind:
Aussen-T/F 126 07-01-2011 01:09:04 6.4 C 6.48 g/m*3 6.4 C 0 km/h
127 07-01-2011 01:21:04 6.5 C 6.52 g/m*3 6.5 C 0 km/h
128 07-01-2011 01:33:04 6.8 C 6.73 g/m*3 6.8 C 0 km/h
129 07-01-2011 01:45:05 6.9 C 6.85 g/m*3 6.9 C 0 km/h
130 07-01-2011 01:57:05 6.6 C 6.72 g/m*3 6.6 C 0 km/h
131 07-01-2011 02:09:05 6 C 6.46 g/m*3 6 C 0 km/h
132 07-01-2011 02:21:05 5.8 C 6.45 g/m*3 5.8 C 0 km/h
133 07-01-2011 02:33:05 5.7 C 6.4 g/m*3 5.7 C 0 km/h
134 07-01-2011 02:45:05 5.8 C 6.45 g/m*3 5.8 C 0 km/h
135 07-01-2011 02:57:05 5.8 C 6.52 g/m*3 5.8 C 0 km/h
136 07-01-2011 03:09:05 5.7 C 6.48 g/m*3 5.7 C 0 km/h
137 07-01-2011 03:21:05 5.6 C 6.43 g/m*3 5.6 C 0 km/h
138 07-01-2011 03:33:05 5.6 C 6.43 g/m*3 5.6 C 0 km/h
139 07-01-2011 03:45:05 5.6 C 6.43 g/m*3 5.6 C 0 km/h
140 07-01-2011 03:57:05 5.6 C 6.43 g/m*3 5.6 C 0 km/h
141 07-01-2011 04:09:05 5.6 C 6.43 g/m*3 5.6 C 0 km/h
142 07-01-2011 04:21:05 5.5 C 6.39 g/m*3 5.5 C 0 km/h
143 07-01-2011 04:33:05 5.2 C 6.27 g/m*3 5.2 C 0 km/h
144 07-01-2011 04:45:05 5.2 C 6.27 g/m*3 5.2 C 0 km/h
145 07-01-2011 04:57:05 5.3 C 6.31 g/m*3 5.3 C 0 km/h
146 07-01-2011 05:09:05 5.6 C 6.5 g/m*3 5.6 C 0 km/h
147 07-01-2011 05:21:05 5.2 C 6.27 g/m*3 5.2 C 0 km/h
148 07-01-2011 05:33:05 5.3 C 6.38 g/m*3 5.3 C 0 km/h
149 07-01-2011 05:45:05 5.2 C 6.33 g/m*3 5.2 C 0 km/h
150 07-01-2011 05:57:06 5.1 C 6.22 g/m*3 5.1 C 0 km/h
Sensor: Nr:Datum:Temp:Abs-Feuchte:Windchill:Wind:
Aussen-T/F 151 07-01-2011 06:09:06 4.8 C 6.17 g/m*3 4.8 C 0 km/h
152 07-01-2011 06:21:06 4.9 C 6.21 g/m*3 4.9 C 0 km/h
153 07-01-2011 06:33:06 5 C 6.18 g/m*3 5 C 0 km/h
154 07-01-2011 06:45:06 5 C 6.18 g/m*3 5 C 0 km/h
155 07-01-2011 06:57:06 4.8 C 6.17 g/m*3 4.8 C 0 km/h
156 07-01-2011 07:09:06 5 C 6.25 g/m*3 5 C 0 km/h
157 07-01-2011 07:21:06 5 C 6.25 g/m*3 5 C 0 km/h
158 07-01-2011 07:33:06 5 C 6.25 g/m*3 5 C 0 km/h
159 07-01-2011 07:45:03 5.1 C 6.29 g/m*3 5.1 C 0 km/h
160 07-01-2011 07:57:03 5.1 C 6.29 g/m*3 5.1 C 0 km/h
161 07-01-2011 08:09:02 4.8 C 6.17 g/m*3 4.8 C 0 km/h
162 07-01-2011 08:21:03 4.9 C 6.21 g/m*3 4.9 C 0 km/h
163 07-01-2011 08:33:02 5 C 6.25 g/m*3 5 C 0 km/h
164 07-01-2011 08:45:03 4.9 C 6.21 g/m*3 4.9 C 0 km/h
165 07-01-2011 08:57:03 4.8 C 6.17 g/m*3 4.8 C 0 km/h
166 07-01-2011 09:09:02 4.7 C 6.13 g/m*3 4.7 C 0 km/h
167 07-01-2011 09:21:02 4.7 C 6.13 g/m*3 4.7 C 0 km/h
168 07-01-2011 09:33:02 4.9 C 6.21 g/m*3 4.9 C 0 km/h
169 07-01-2011 09:45:02 5 C 6.25 g/m*3 5 C 0 km/h
170 07-01-2011 09:57:02 5.2 C 6.33 g/m*3 5.2 C 0 km/h
171 07-01-2011 10:09:02 5.3 C 6.38 g/m*3 5.3 C 0 km/h
172 07-01-2011 10:21:03 5.3 C 6.38 g/m*3 5.3 C 0 km/h
173 07-01-2011 10:33:02 5.6 C 6.5 g/m*3 5.6 C 0 km/h
174 07-01-2011 10:45:03 5.6 C 6.43 g/m*3 5.6 C 0 km/h
175 07-01-2011 10:57:03 5.7 C 6.48 g/m*3 5.7 C 0 km/h
Sensor: Nr:Datum:Temp:Abs-Feuchte:Windchill:Wind:
Aussen-T/F 176 07-01-2011 11:09:02 6 C 6.6 g/m*3 6 C 0 km/h
177 07-01-2011 11:21:02 6.7 C 6.91 g/m*3 6.7 C 0 km/h
178 07-01-2011 11:33:02 7.1 C 7.1 g/m*3 7.1 C 0 km/h
179 07-01-2011 11:45:02 7 C 7.05 g/m*3 7 C 0 km/h
180 07-01-2011 11:57:02 7 C 7.05 g/m*3 7 C 0 km/h
181 07-01-2011 12:09:02 7.2 C 7.14 g/m*3 7.2 C 0 km/h
182 07-01-2011 12:21:02 7.2 C 7.06 g/m*3 7.2 C 0 km/h
183 07-01-2011 12:33:02 7.3 C 7.11 g/m*3 7.3 C 0 km/h
184 07-01-2011 12:45:02 7.3 C 7.11 g/m*3 7.3 C 0 km/h
185 07-01-2011 12:57:02 7.4 C 7.16 g/m*3 7.4 C 0 km/h
186 07-01-2011 13:09:01 7.5 C 7.2 g/m*3 7.5 C 0 km/h
187 07-01-2011 13:21:01 7.4 C 7.16 g/m*3 7.4 C 0 km/h
188 07-01-2011 13:33:02 7.3 C 7.11 g/m*3 7.3 C 0 km/h
189 07-01-2011 13:45:02 7.4 C 7.08 g/m*3 7.4 C 0 km/h
190 07-01-2011 13:57:02 7.3 C 7.03 g/m*3 7.3 C 0 km/h
191 07-01-2011 14:09:02 7.4 C 7.08 g/m*3 7.4 C 0 km/h
192 07-01-2011 14:21:02 7.5 C 7.12 g/m*3 7.5 C 0 km/h
193 07-01-2011 14:33:02 7.5 C 7.2 g/m*3 7.5 C 0 km/h
194 07-01-2011 14:45:02 7.4 C 7.16 g/m*3 7.4 C 0 km/h
195 07-01-2011 14:57:02 7.3 C 7.11 g/m*3 7.3 C 0 km/h
196 07-01-2011 15:09:02 7.3 C 7.11 g/m*3 7.3 C 0 km/h
197 07-01-2011 15:21:02 7.3 C 7.11 g/m*3 7.3 C 0 km/h
198 07-01-2011 15:33:02 7.1 C 7.02 g/m*3 7.1 C 0 km/h
199 07-01-2011 15:45:02 7.1 C 7.02 g/m*3 7.1 C 0 km/h
200 07-01-2011 15:57:02 7.1 C 7.02 g/m*3 7.1 C 0 km/h
Sensor: Nr:Datum:Temp:Abs-Feuchte:Windchill:Wind:
Aussen-T/F 201 07-01-2011 16:09:02 6.9 C 7.01 g/m*3 6.9 C 0 km/h
202 07-01-2011 16:21:02 7.2 C 7.06 g/m*3 7.2 C 0 km/h
203 07-01-2011 16:33:03 7.1 C 7.02 g/m*3 7.1 C 0 km/h
204 07-01-2011 16:45:02 7 C 6.97 g/m*3 7 C 0 km/h
205 07-01-2011 16:57:02 7.1 C 7.02 g/m*3 7.1 C 0 km/h
206 07-01-2011 17:09:03 7.3 C 7.19 g/m*3 7.3 C 0 km/h
207 07-01-2011 17:21:02 7.3 C 7.19 g/m*3 7.3 C 0 km/h
208 07-01-2011 17:33:02 7.5 C 7.28 g/m*3 7.5 C 0 km/h
209 07-01-2011 17:45:01 7.7 C 7.38 g/m*3 7.7 C 0 km/h
210 07-01-2011 17:57:01 7.8 C 7.43 g/m*3 7.8 C 0 km/h
211 07-01-2011 18:09:02 8.3 C 7.67 g/m*3 8.3 C 0 km/h
212 07-01-2011 18:21:01 9.3 C 8.09 g/m*3 9.3 C 0 km/h
213 07-01-2011 18:33:01 9.3 C 8.09 g/m*3 9.3 C 0 km/h
214 07-01-2011 18:45:01 10 C 8.36 g/m*3 10 C 0 km/h
215 07-01-2011 18:57:01 9.7 C 8.2 g/m*3 9.7 C 0 km/h
216 07-01-2011 19:09:01 10.3 C 8.33 g/m*3 10.3 C 0 km/h
217 07-01-2011 19:21:02 9.8 C 7.98 g/m*3 9.8 C 0 km/h
218 07-01-2011 19:33:01 9.6 C 7.88 g/m*3 9.6 C 0 km/h
219 07-01-2011 19:45:03 8.9 C 7.53 g/m*3 8.9 C 0 km/h
220 07-01-2011 19:57:03 8.6 C 7.48 g/m*3 8.6 C 0 km/h
221 07-01-2011 20:09:03 8.5 C 7.51 g/m*3 8.5 C 0 km/h
222 07-01-2011 20:21:02 8.9 C 7.8 g/m*3 8.9 C 0 km/h
223 07-01-2011 20:33:03 9.2 C 7.95 g/m*3 9.2 C 0 km/h
224 07-01-2011 20:45:02 9 C 7.85 g/m*3 9 C 0 km/h
225 07-01-2011 20:57:03 8.9 C 7.8 g/m*3 8.9 C 0 km/h
Sensor: Nr:Datum:Temp:Abs-Feuchte:Windchill:Wind:
Aussen-T/F 226 07-01-2011 21:09:01 8.9 C 7.8 g/m*3 8.9 C 0 km/h
227 07-01-2011 21:21:02 8.9 C 7.88 g/m*3 8.9 C 0 km/h
228 07-01-2011 21:33:02 9 C 7.85 g/m*3 9 C 0 km/h
229 07-01-2011 21:45:02 9.1 C 7.9 g/m*3 9.1 C 0 km/h
230 07-01-2011 21:57:02 9.1 C 7.9 g/m*3 9.1 C 0 km/h
231 07-01-2011 22:09:02 9 C 7.76 g/m*3 9 C 0 km/h
232 07-01-2011 22:22:03 8.8 C 7.75 g/m*3 8.8 C 0 km/h
233 07-01-2011 22:34:03 8.6 C 7.65 g/m*3 8.6 C 0 km/h
234 07-01-2011 22:46:03 8.5 C 7.51 g/m*3 8.5 C 0 km/h
235 07-01-2011 22:58:03 8.6 C 7.65 g/m*3 8.6 C 0 km/h
236 07-01-2011 23:10:03 8.6 C 7.65 g/m*3 8.6 C 0 km/h
237 07-01-2011 23:22:03 8.5 C 7.6 g/m*3 8.5 C 0 km/h
238 07-01-2011 23:34:03 8.8 C 7.75 g/m*3 8.8 C 0 km/h
239 07-01-2011 23:46:03 8.9 C 7.8 g/m*3 8.9 C 0 km/h
240 07-01-2011 23:58:03 9 C 7.76 g/m*3 9 C 0 km/h
241 08-01-2011 00:10:03 9.2 C 7.77 g/m*3 9.2 C 0 km/h
242 08-01-2011 00:22:03 8.9 C 7.62 g/m*3 8.9 C 0 km/h
243 08-01-2011 00:34:03 8.7 C 7.52 g/m*3 8.7 C 0 km/h
244 08-01-2011 00:46:03 8.3 C 7.33 g/m*3 8.3 C 0 km/h
245 08-01-2011 00:58:03 8.1 C 7.24 g/m*3 8.1 C 0 km/h
246 08-01-2011 01:10:03 8 C 7.28 g/m*3 8 C 0 km/h
247 08-01-2011 01:22:03 7.7 C 7.22 g/m*3 7.7 C 0 km/h
248 08-01-2011 01:34:03 7.5 C 7.12 g/m*3 7.5 C 0 km/h
249 08-01-2011 01:46:03 7.1 C 6.94 g/m*3 7.1 C 0 km/h
250 08-01-2011 01:58:04 7 C 6.9 g/m*3 7 C 0 km/h
Sensor: Nr:Datum:Temp:Abs-Feuchte:Windchill:Wind:
Aussen-T/F 251 08-01-2011 02:10:04 6.9 C 6.93 g/m*3 6.9 C 0 km/h
252 08-01-2011 02:22:04 6.6 C 6.79 g/m*3 6.6 C 0 km/h
253 08-01-2011 02:34:04 6.7 C 6.91 g/m*3 6.7 C 0 km/h
254 08-01-2011 02:46:04 6.6 C 6.87 g/m*3 6.6 C 0 km/h
255 08-01-2011 02:58:04 6.8 C 6.96 g/m*3 6.8 C 0 km/h
256 08-01-2011 03:10:04 7 C 7.05 g/m*3 7 C 0 km/h
257 08-01-2011 03:22:04 7.9 C 7.56 g/m*3 7.9 C 0 km/h
258 08-01-2011 03:34:04 8.1 C 7.57 g/m*3 8.1 C 0 km/h
259 08-01-2011 03:46:04 8.5 C 7.77 g/m*3 8.5 C 0 km/h
260 08-01-2011 03:58:04 8.1 C 7.57 g/m*3 8.1 C 0 km/h
261 08-01-2011 04:10:04 7.9 C 7.56 g/m*3 7.9 C 0 km/h
262 08-01-2011 04:22:04 8.2 C 7.62 g/m*3 8.2 C 0 km/h
263 08-01-2011 04:34:04 8.1 C 7.57 g/m*3 8.1 C 0 km/h
264 08-01-2011 04:46:04 7.9 C 7.56 g/m*3 7.9 C 0 km/h
265 08-01-2011 04:58:04 7.3 C 7.27 g/m*3 7.3 C 0 km/h
266 08-01-2011 05:10:04 7.5 C 7.36 g/m*3 7.5 C 0 km/h
267 08-01-2011 05:22:04 8 C 7.52 g/m*3 8 C 0 km/h
268 08-01-2011 05:34:04 7.9 C 7.56 g/m*3 7.9 C 0 km/h
269 08-01-2011 05:46:04 8.1 C 7.66 g/m*3 8.1 C 0 km/h
270 08-01-2011 05:58:05 8.2 C 7.7 g/m*3 8.2 C 0 km/h
271 08-01-2011 06:10:05 8.2 C 7.7 g/m*3 8.2 C 0 km/h
272 08-01-2011 06:22:05 8.2 C 7.7 g/m*3 8.2 C 0 km/h
273 08-01-2011 06:34:05 8 C 7.61 g/m*3 8 C 0 km/h
274 08-01-2011 06:46:05 7.8 C 7.59 g/m*3 7.8 C 0 km/h
275 08-01-2011 06:58:05 7.7 C 7.54 g/m*3 7.7 C 0 km/h
Sensor: Nr:Datum:Temp:Abs-Feuchte:Windchill:Wind:
Aussen-T/F 276 08-01-2011 07:10:05 8 C 7.61 g/m*3 8 C 0 km/h
277 08-01-2011 07:22:05 8 C 7.61 g/m*3 8 C 0 km/h
278 08-01-2011 07:34:05 7.9 C 7.64 g/m*3 7.9 C 0 km/h
279 08-01-2011 07:46:05 8.3 C 7.75 g/m*3 8.3 C 0 km/h
280 08-01-2011 07:58:05 8.6 C 7.91 g/m*3 8.6 C 0 km/h
281 08-01-2011 08:10:05 8.5 C 7.85 g/m*3 8.5 C 0 km/h
282 08-01-2011 08:22:05 8.2 C 7.7 g/m*3 8.2 C 0 km/h
283 08-01-2011 08:34:05 7.9 C 7.64 g/m*3 7.9 C 0 km/h
284 08-01-2011 08:46:02 8.3 C 7.75 g/m*3 8.3 C 0 km/h
285 08-01-2011 08:58:02 8.8 C 8.09 g/m*3 8.8 C 0 km/h
286 08-01-2011 09:10:02 8.9 C 8.06 g/m*3 8.9 C 0 km/h
287 08-01-2011 09:22:02 9.1 C 8.07 g/m*3 9.1 C 0 km/h
288 08-01-2011 09:34:02 8.7 C 7.96 g/m*3 8.7 C 0 km/h
289 08-01-2011 09:46:02 8.5 C 7.85 g/m*3 8.5 C 0 km/h
290 08-01-2011 09:58:02 8.3 C 7.75 g/m*3 8.3 C 0 km/h
291 08-01-2011 10:10:01 8 C 7.61 g/m*3 8 C 0 km/h
292 08-01-2011 10:22:02 7.7 C 7.46 g/m*3 7.7 C 0 km/h
293 08-01-2011 10:34:01 7.6 C 7.41 g/m*3 7.6 C 0 km/h
294 08-01-2011 10:46:02 7.6 C 7.41 g/m*3 7.6 C 0 km/h
295 08-01-2011 10:58:03 8 C 7.52 g/m*3 8 C 0 km/h
296 08-01-2011 11:10:02 8.6 C 7.82 g/m*3 8.6 C 0 km/h
297 08-01-2011 11:22:02 9.3 C 8.09 g/m*3 9.3 C 0 km/h
298 08-01-2011 11:34:03 10.2 C 8.09 g/m*3 10.2 C 0 km/h
299 08-01-2011 11:46:02 10.9 C 7.96 g/m*3 10.9 C 0 km/h
300 08-01-2011 11:58:02 12 C 7.25 g/m*3 12 C 0 km/h
Sensor: Nr:Datum:Temp:Abs-Feuchte:Windchill:Wind:
Aussen-T/F 301 08-01-2011 12:10:02 12.1 C 6.97 g/m*3 12.1 C 0 km/h
302 08-01-2011 12:22:01 12.7 C 6.57 g/m*3 12.7 C 0 km/h
303 08-01-2011 12:34:02 13.1 C 6.39 g/m*3 13.1 C 0 km/h
304 08-01-2011 12:46:02 13.8 C 6.55 g/m*3 13.8 C 0 km/h
305 08-01-2011 12:58:02 13.8 C 6.43 g/m*3 13.8 C 0 km/h
306 08-01-2011 13:10:02 13.9 C 6.35 g/m*3 13.9 C 0 km/h
307 08-01-2011 13:22:01 14 C 6.27 g/m*3 14 C 0 km/h
308 08-01-2011 13:34:02 14.1 C 5.95 g/m*3 14.1 C 0 km/h
309 08-01-2011 13:46:02 14.4 C 5.93 g/m*3 14.4 C 0 km/h
310 08-01-2011 13:58:02 14.5 C 5.85 g/m*3 14.5 C 0 km/h
311 08-01-2011 14:10:02 14.5 C 5.85 g/m*3 14.5 C 0 km/h
312 08-01-2011 14:22:02 14.7 C 5.79 g/m*3 14.7 C 0 km/h
313 08-01-2011 14:34:02 14.5 C 5.85 g/m*3 14.5 C 0 km/h
314 08-01-2011 14:46:02 14.3 C 5.9 g/m*3 14.3 C 0 km/h
315 08-01-2011 14:58:02 14 C 5.91 g/m*3 14 C 0 km/h
316 08-01-2011 15:10:02 14.3 C 5.9 g/m*3 14.3 C 0 km/h
317 08-01-2011 15:22:02 14 C 6.03 g/m*3 14 C 0 km/h
318 08-01-2011 15:34:01 14 C 5.79 g/m*3 14 C 0 km/h
319 08-01-2011 15:46:02 14.2 C 5.74 g/m*3 14.2 C 0 km/h
320 08-01-2011 15:58:02 14.1 C 5.83 g/m*3 14.1 C 0 km/h
321 08-01-2011 16:10:01 14 C 5.79 g/m*3 14 C 0 km/h
322 08-01-2011 16:22:02 13.8 C 5.96 g/m*3 13.8 C 0 km/h
323 08-01-2011 16:34:02 12.8 C 6.05 g/m*3 12.8 C 0 km/h
324 08-01-2011 16:46:02 13.7 C 5.8 g/m*3 13.7 C 0 km/h
325 08-01-2011 16:58:02 13.7 C 5.68 g/m*3 13.7 C 0 km/h
Sensor: Nr:Datum:Temp:Abs-Feuchte:Windchill:Wind:
Aussen-T/F 326 08-01-2011 17:10:02 13.2 C 5.86 g/m*3 13.2 C 0 km/h
327 08-01-2011 17:22:02 13.4 C 5.93 g/m*3 13.4 C 0 km/h
328 08-01-2011 17:34:02 13.3 C 6.01 g/m*3 13.3 C 0 km/h
329 08-01-2011 17:46:01 13.5 C 5.85 g/m*3 13.5 C 0 km/h
330 08-01-2011 17:58:01 13 C 5.9 g/m*3 13 C 0 km/h
331 08-01-2011 18:10:02 13.5 C 5.97 g/m*3 13.5 C 0 km/h
332 08-01-2011 18:22:01 13.2 C 5.86 g/m*3 13.2 C 0 km/h
333 08-01-2011 18:34:01 13.7 C 5.8 g/m*3 13.7 C 0 km/h
334 08-01-2011 18:46:01 13.5 C 5.85 g/m*3 13.5 C 0 km/h
335 08-01-2011 18:58:01 13.3 C 5.89 g/m*3 13.3 C 0 km/h
336 08-01-2011 19:10:02 13 C 6.01 g/m*3 13 C 0 km/h
337 08-01-2011 19:22:01 13.1 C 5.93 g/m*3 13.1 C 0 km/h
338 08-01-2011 19:34:01 13.3 C 5.89 g/m*3 13.3 C 0 km/h
339 08-01-2011 19:46:01 13.2 C 5.86 g/m*3 13.2 C 0 km/h
340 08-01-2011 19:58:01 13.2 C 5.97 g/m*3 13.2 C 0 km/h
341 08-01-2011 20:10:02 13.2 C 5.97 g/m*3 13.2 C 0 km/h
342 08-01-2011 20:22:02 12.7 C 6.12 g/m*3 12.7 C 0 km/h
343 08-01-2011 20:34:01 11.8 C 6.53 g/m*3 11.8 C 0 km/h
344 08-01-2011 20:46:02 12.1 C 6.54 g/m*3 12.1 C 0 km/h
345 08-01-2011 20:58:02 11.8 C 6.53 g/m*3 11.8 C 0 km/h
346 08-01-2011 21:10:01 11.4 C 6.57 g/m*3 11.4 C 0 km/h
347 08-01-2011 21:22:02 11.8 C 6.63 g/m*3 11.8 C 0 km/h
348 08-01-2011 21:34:01 12.2 C 6.58 g/m*3 12.2 C 0 km/h
349 08-01-2011 21:46:02 12.5 C 6.82 g/m*3 12.5 C 0 km/h
350 08-01-2011 21:58:02 12.3 C 6.41 g/m*3 12.3 C 0 km/h
Sensor: Nr:Datum:Temp:Abs-Feuchte:Windchill:Wind:
Aussen-T/F 351 08-01-2011 22:10:03 12.5 C 6.38 g/m*3 12.5 C 0 km/h
352 08-01-2011 22:22:02 12.3 C 6.3 g/m*3 12.3 C 0 km/h
353 08-01-2011 22:35:03 11.8 C 6.63 g/m*3 11.8 C 0 km/h
354 08-01-2011 22:47:03 12.2 C 6.58 g/m*3 12.2 C 0 km/h
355 08-01-2011 22:59:03 10.9 C 6.86 g/m*3 10.9 C 0 km/h
356 08-01-2011 23:11:03 10.5 C 6.98 g/m*3 10.5 C 0 km/h
357 08-01-2011 23:23:03 10.6 C 7.12 g/m*3 10.6 C 0 km/h
358 08-01-2011 23:35:03 10.3 C 7.18 g/m*3 10.3 C 0 km/h
359 08-01-2011 23:47:03 10.2 C 7.14 g/m*3 10.2 C 0 km/h
360 08-01-2011 23:59:03 10 C 7.24 g/m*3 10 C 0 km/h
361 09-01-2011 00:11:03 9.8 C 7.42 g/m*3 9.8 C 0 km/h
362 09-01-2011 00:23:04 9.7 C 7.56 g/m*3 9.7 C 0 km/h
363 09-01-2011 00:35:04 9.6 C 7.69 g/m*3 9.6 C 0 km/h
364 09-01-2011 00:47:04 9.6 C 7.79 g/m*3 9.6 C 0 km/h
365 09-01-2011 00:59:04 9.5 C 7.83 g/m*3 9.5 C 0 km/h
366 09-01-2011 01:11:04 9.5 C 7.92 g/m*3 9.5 C 0 km/h
367 09-01-2011 01:23:04 9.7 C 8.02 g/m*3 9.7 C 0 km/h
368 09-01-2011 01:35:04 9.6 C 7.97 g/m*3 9.6 C 0 km/h
369 09-01-2011 01:47:04 9.7 C 8.02 g/m*3 9.7 C 0 km/h
370 09-01-2011 01:59:04 9.6 C 7.97 g/m*3 9.6 C 0 km/h
371 09-01-2011 02:11:04 9.8 C 8.07 g/m*3 9.8 C 0 km/h
372 09-01-2011 02:23:04 10 C 7.99 g/m*3 10 C 0 km/h
373 09-01-2011 02:35:04 9.8 C 7.98 g/m*3 9.8 C 0 km/h
374 09-01-2011 02:47:04 9.7 C 7.84 g/m*3 9.7 C 0 km/h
375 09-01-2011 02:59:04 9.6 C 7.79 g/m*3 9.6 C 0 km/h
Sensor: Nr:Datum:Temp:Abs-Feuchte:Windchill:Wind:
Aussen-T/F 376 09-01-2011 03:11:04 9.5 C 7.83 g/m*3 9.5 C 0 km/h
377 09-01-2011 03:23:04 9.4 C 7.78 g/m*3 9.4 C 0 km/h
378 09-01-2011 03:35:04 9.2 C 7.68 g/m*3 9.2 C 0 km/h
379 09-01-2011 03:47:04 9.2 C 7.77 g/m*3 9.2 C 0 km/h
380 09-01-2011 03:59:04 9.3 C 7.82 g/m*3 9.3 C 0 km/h
381 09-01-2011 04:11:04 9.7 C 7.93 g/m*3 9.7 C 0 km/h
382 09-01-2011 04:23:05 10.8 C 7.91 g/m*3 10.8 C 0 km/h
383 09-01-2011 04:35:05 11 C 7.51 g/m*3 11 C 0 km/h
384 09-01-2011 04:47:05 11.5 C 7.23 g/m*3 11.5 C 0 km/h
385 09-01-2011 04:59:05 11.6 C 7.28 g/m*3 11.6 C 0 km/h
386 09-01-2011 05:11:05 11.8 C 7.26 g/m*3 11.8 C 0 km/h
387 09-01-2011 05:23:05 11.5 C 7.23 g/m*3 11.5 C 0 km/h
388 09-01-2011 05:35:05 11.7 C 7.22 g/m*3 11.7 C 0 km/h
389 09-01-2011 05:47:05 11.1 C 7.15 g/m*3 11.1 C 0 km/h
390 09-01-2011 05:59:05 9.3 C 6.65 g/m*3 9.3 C 0 km/h
391 09-01-2011 06:11:05 8 C 6.45 g/m*3 8 C 0 km/h
392 09-01-2011 06:23:05 7.5 C 6.48 g/m*3 7.5 C 0 km/h
393 09-01-2011 06:35:05 7.2 C 6.52 g/m*3 7.2 C 0 km/h
394 09-01-2011 06:47:05 7 C 6.59 g/m*3 7 C 0 km/h
395 09-01-2011 06:59:05 6.8 C 6.65 g/m*3 6.8 C 0 km/h
396 09-01-2011 07:11:05 6.6 C 6.57 g/m*3 6.6 C 0 km/h
397 09-01-2011 07:23:05 6.4 C 6.48 g/m*3 6.4 C 0 km/h
398 09-01-2011 07:35:05 6.2 C 6.4 g/m*3 6.2 C 0 km/h
399 09-01-2011 07:47:05 5.8 C 6.3 g/m*3 5.8 C 0 km/h
400 09-01-2011 07:59:05 5.6 C 6.22 g/m*3 5.6 C 0 km/h
Sensor: Nr:Datum:Temp:Abs-Feuchte:Windchill:Wind:
Aussen-T/F 401 09-01-2011 08:11:05 5.5 C 6.18 g/m*3 5.5 C 0 km/h
402 09-01-2011 08:23:05 5.3 C 6.1 g/m*3 5.3 C 0 km/h
403 09-01-2011 08:35:06 5.3 C 6.1 g/m*3 5.3 C 0 km/h
404 09-01-2011 08:47:02 5 C 5.98 g/m*3 5 C 0 km/h
405 09-01-2011 08:59:03 4.7 C 5.86 g/m*3 4.7 C 0 km/h
406 09-01-2011 09:11:02 4.3 C 5.64 g/m*3 4.3 C 0 km/h
407 09-01-2011 09:23:02 4.3 C 5.58 g/m*3 4.3 C 0 km/h
408 09-01-2011 09:35:03 4 C 5.47 g/m*3 4 C 0 km/h
409 09-01-2011 09:47:01 3.8 C 5.46 g/m*3 3.8 C 0 km/h
410 09-01-2011 09:59:01 3.5 C 5.35 g/m*3 3.5 C 0 km/h
411 09-01-2011 10:11:02 3 C 5.17 g/m*3 3 C 0 km/h
412 09-01-2011 10:23:01 2.9 C 5.14 g/m*3 2.9 C 0 km/h
413 09-01-2011 10:35:01 2.8 C 5.1 g/m*3 2.8 C 0 km/h
414 09-01-2011 10:47:01 3 C 5.17 g/m*3 3 C 0 km/h
415 09-01-2011 10:59:01 3.4 C 5.31 g/m*3 3.4 C 0 km/h
416 09-01-2011 11:11:01 3.9 C 5.56 g/m*3 3.9 C 0 km/h
417 09-01-2011 11:23:02 4.1 C 5.5 g/m*3 4.1 C 0 km/h
418 09-01-2011 11:35:01 4.1 C 5.44 g/m*3 4.1 C 0 km/h
419 09-01-2011 11:47:02 4.1 C 5.38 g/m*3 4.1 C 0 km/h
420 09-01-2011 11:59:02 4.3 C 5.45 g/m*3 4.3 C 0 km/h
421 09-01-2011 12:11:01 4.3 C 5.38 g/m*3 4.3 C 0 km/h
422 09-01-2011 12:23:02 4.5 C 5.39 g/m*3 4.5 C 0 km/h
423 09-01-2011 12:35:01 4.6 C 5.36 g/m*3 4.6 C 0 km/h
424 09-01-2011 12:47:02 4.8 C 5.43 g/m*3 4.8 C 0 km/h
425 09-01-2011 12:59:02 4.6 C 5.36 g/m*3 4.6 C 0 km/h
Sensor: Nr:Datum:Temp:Abs-Feuchte:Windchill:Wind:
Aussen-T/F 426 09-01-2011 13:11:02 4.8 C 5.43 g/m*3 4.8 C 0 km/h
427 09-01-2011 13:23:02 5.1 C 5.34 g/m*3 5.1 C 0 km/h
428 09-01-2011 13:35:02 5.1 C 5.34 g/m*3 5.1 C 0 km/h
429 09-01-2011 13:47:02 5.2 C 5.23 g/m*3 5.2 C 0 km/h
430 09-01-2011 13:59:02 5.2 C 5.3 g/m*3 5.2 C 0 km/h
431 09-01-2011 14:11:01 5.2 C 5.23 g/m*3 5.2 C 0 km/h
432 09-01-2011 14:23:01 5.3 C 5.27 g/m*3 5.3 C 0 km/h
433 09-01-2011 14:35:02 5.3 C 5.27 g/m*3 5.3 C 0 km/h
434 09-01-2011 14:47:02 5.2 C 5.3 g/m*3 5.2 C 0 km/h
435 09-01-2011 14:59:02 5.2 C 5.23 g/m*3 5.2 C 0 km/h
436 09-01-2011 15:11:02 5 C 5.37 g/m*3 5 C 0 km/h
437 09-01-2011 15:23:02 4.8 C 5.5 g/m*3 4.8 C 0 km/h
438 09-01-2011 15:35:02 4.6 C 5.49 g/m*3 4.6 C 0 km/h
439 09-01-2011 15:47:02 4.4 C 5.42 g/m*3 4.4 C 0 km/h
440 09-01-2011 15:59:02 4.1 C 5.38 g/m*3 4.1 C 0 km/h
441 09-01-2011 16:11:02 3.8 C 5.4 g/m*3 3.8 C 0 km/h
442 09-01-2011 16:23:02 3.4 C 5.31 g/m*3 3.4 C 0 km/h
443 09-01-2011 16:35:02 3.2 C 5.24 g/m*3 3.2 C 0 km/h
444 09-01-2011 16:47:02 3 C 5.23 g/m*3 3 C 0 km/h
445 09-01-2011 16:59:02 2.9 C 5.26 g/m*3 2.9 C 0 km/h
446 09-01-2011 17:11:02 3.2 C 5.36 g/m*3 3.2 C 0 km/h
447 09-01-2011 17:23:02 2.9 C 5.26 g/m*3 2.9 C 0 km/h
448 09-01-2011 17:35:02 2.7 C 5.19 g/m*3 2.7 C 0 km/h
449 09-01-2011 17:47:02 2.6 C 5.21 g/m*3 2.6 C 0 km/h
450 09-01-2011 17:59:02 2.5 C 5.17 g/m*3 2.5 C 0 km/h
Sensor: Nr:Datum:Temp:Abs-Feuchte:Windchill:Wind:
Aussen-T/F 451 09-01-2011 18:11:02 2.2 C 5.07 g/m*3 2.2 C 0 km/h
452 09-01-2011 18:23:03 1.9 C 5.02 g/m*3 1.9 C 0 km/h
453 09-01-2011 18:35:02 1.7 C 4.95 g/m*3 1.7 C 0 km/h
454 09-01-2011 18:47:02 1.5 C 4.89 g/m*3 1.5 C 0 km/h
455 09-01-2011 18:59:02 1.5 C 4.89 g/m*3 1.5 C 0 km/h
456 09-01-2011 19:11:02 1.6 C 4.97 g/m*3 1.6 C 0 km/h
457 09-01-2011 19:23:02 1.7 C 5.01 g/m*3 1.7 C 0 km/h
458 09-01-2011 19:35:02 2 C 5.11 g/m*3 2 C 0 km/h
459 09-01-2011 19:47:02 1.9 C 5.08 g/m*3 1.9 C 0 km/h
460 09-01-2011 19:59:02 1.8 C 5.04 g/m*3 1.8 C 0 km/h
461 09-01-2011 20:11:02 1.4 C 4.91 g/m*3 1.4 C 0 km/h
462 09-01-2011 20:23:02 1.5 C 4.94 g/m*3 1.5 C 0 km/h
463 09-01-2011 20:35:02 1.5 C 4.94 g/m*3 1.5 C 0 km/h
464 09-01-2011 20:47:02 1 C 4.72 g/m*3 1 C 0 km/h
465 09-01-2011 20:59:02 0.8 C 4.71 g/m*3 0.8 C 0 km/h
466 09-01-2011 21:11:02 0.5 C 4.61 g/m*3 0.5 C 0 km/h
467 09-01-2011 21:23:02 0.3 C 4.55 g/m*3 0.3 C 0 km/h
468 09-01-2011 21:35:01 0.9 C 4.79 g/m*3 0.9 C 0 km/h
469 09-01-2011 21:47:02 0.8 C 4.71 g/m*3 0.8 C 0 km/h
470 09-01-2011 21:59:02 0.7 C 4.73 g/m*3 0.7 C 0 km/h
471 09-01-2011 22:11:02 0.2 C 4.52 g/m*3 0.2 C 0 km/h
472 09-01-2011 22:23:02 0.3 C 4.6 g/m*3 0.3 C 0 km/h
473 09-01-2011 22:36:02 0 C 4.46 g/m*3 0 C 0 km/h
474 09-01-2011 22:48:02 -0.2 C 4.4 g/m*3 -0.2 C 0 km/h
475 09-01-2011 23:00:02 0.1 C 4.54 g/m*3 0.1 C 0 km/h
Sensor: Nr:Datum:Temp:Abs-Feuchte:Windchill:Wind:
Aussen-T/F 476 09-01-2011 23:12:02 0.2 C 4.57 g/m*3 0.2 C 0 km/h
477 09-01-2011 23:24:02 -0.3 C 4.41 g/m*3 -0.3 C 0 km/h
478 09-01-2011 23:36:02 0.1 C 4.54 g/m*3 0.1 C 0 km/h
479 09-01-2011 23:48:02 0 C 4.51 g/m*3 0 C 0 km/h
480 10-01-2011 00:00:02 0.3 C 4.6 g/m*3 0.3 C 0 km/h
481 10-01-2011 00:12:02 0.6 C 4.7 g/m*3 0.6 C 0 km/h
482 10-01-2011 00:24:02 0.3 C 4.6 g/m*3 0.3 C 0 km/h
483 10-01-2011 00:36:02 -0.2 C 4.44 g/m*3 -0.2 C 0 km/h
484 10-01-2011 00:48:02 -0.2 C 4.44 g/m*3 -0.2 C 0 km/h
485 10-01-2011 01:00:02 0.2 C 4.57 g/m*3 0.2 C 0 km/h
486 10-01-2011 01:12:02 0.3 C 4.6 g/m*3 0.3 C 0 km/h
487 10-01-2011 01:24:02 0.4 C 4.63 g/m*3 0.4 C 0 km/h
488 10-01-2011 01:36:02 0.3 C 4.65 g/m*3 0.3 C 0 km/h
489 10-01-2011 01:48:02 0.2 C 4.62 g/m*3 0.2 C 0 km/h
490 10-01-2011 02:00:02 0.2 C 4.62 g/m*3 0.2 C 0 km/h
491 10-01-2011 02:12:02 0.1 C 4.54 g/m*3 0.1 C 0 km/h
492 10-01-2011 02:24:02 0 C 4.55 g/m*3 0 C 0 km/h
493 10-01-2011 02:36:03 -0.1 C 4.52 g/m*3 -0.1 C 0 km/h
494 10-01-2011 02:48:03 -0.1 C 4.52 g/m*3 -0.1 C 0 km/h
495 10-01-2011 03:00:03 0 C 4.55 g/m*3 0 C 0 km/h
496 10-01-2011 03:12:03 0.2 C 4.62 g/m*3 0.2 C 0 km/h
497 10-01-2011 03:24:03 0.3 C 4.65 g/m*3 0.3 C 0 km/h
498 10-01-2011 03:36:03 0.2 C 4.62 g/m*3 0.2 C 0 km/h
499 10-01-2011 03:48:03 0.3 C 4.65 g/m*3 0.3 C 0 km/h
500 10-01-2011 04:00:03 0.4 C 4.68 g/m*3 0.4 C 0 km/h
Sensor: Nr:Datum:Temp:Abs-Feuchte:Windchill:Wind:
Aussen-T/F 501 10-01-2011 04:12:03 0.4 C 4.68 g/m*3 0.4 C 0 km/h
502 10-01-2011 04:24:03 0.4 C 4.68 g/m*3 0.4 C 0 km/h
503 10-01-2011 04:36:03 0.4 C 4.68 g/m*3 0.4 C 0 km/h
504 10-01-2011 04:48:03 0.3 C 4.65 g/m*3 0.3 C 0 km/h
505 10-01-2011 05:00:03 0.3 C 4.65 g/m*3 0.3 C 0 km/h
506 10-01-2011 05:12:03 0.3 C 4.65 g/m*3 0.3 C 0 km/h
507 10-01-2011 05:24:03 0.2 C 4.62 g/m*3 0.2 C 0 km/h
508 10-01-2011 05:36:03 0.3 C 4.65 g/m*3 0.3 C 0 km/h
509 10-01-2011 05:48:03 0.2 C 4.57 g/m*3 0.2 C 0 km/h
510 10-01-2011 06:00:03 0.2 C 4.57 g/m*3 0.2 C 0 km/h
511 10-01-2011 06:12:03 0.2 C 4.57 g/m*3 0.2 C 0 km/h
512 10-01-2011 06:24:03 0.2 C 4.57 g/m*3 0.2 C 0 km/h
513 10-01-2011 06:36:04 0.2 C 4.57 g/m*3 0.2 C 0 km/h
514 10-01-2011 06:48:04 0.2 C 4.57 g/m*3 0.2 C 0 km/h
515 10-01-2011 07:00:04 0.2 C 4.57 g/m*3 0.2 C 0 km/h
516 10-01-2011 07:12:01 -0.1 C 4.47 g/m*3 -0.1 C 0 km/h
517 10-01-2011 07:24:02 0 C 4.51 g/m*3 0 C 0 km/h
518 10-01-2011 07:36:01 0.1 C 4.54 g/m*3 0.1 C 0 km/h
519 10-01-2011 07:48:02 0.3 C 4.6 g/m*3 0.3 C 0 km/h
520 10-01-2011 08:00:02 0.3 C 4.6 g/m*3 0.3 C 0 km/h
521 10-01-2011 08:12:01 0.2 C 4.52 g/m*3 0.2 C 0 km/h
522 10-01-2011 08:24:02 0.2 C 4.52 g/m*3 0.2 C 0 km/h
523 10-01-2011 08:36:01 0.1 C 4.44 g/m*3 0.1 C 0 km/h
524 10-01-2011 08:48:03 0.1 C 4.44 g/m*3 0.1 C 0 km/h
525 10-01-2011 09:00:03 0.2 C 4.47 g/m*3 0.2 C 0 km/h
Sensor: Nr:Datum:Temp:Abs-Feuchte:Windchill:Wind:
Aussen-T/F 526 10-01-2011 09:12:02 0.3 C 4.45 g/m*3 0.3 C 0 km/h
527 10-01-2011 09:24:02 0.4 C 4.48 g/m*3 0.4 C 0 km/h
528 10-01-2011 09:36:02 0.3 C 4.4 g/m*3 0.3 C 0 km/h
529 10-01-2011 09:48:02 0.4 C 4.43 g/m*3 0.4 C 0 km/h
530 10-01-2011 10:00:02 0.5 C 4.41 g/m*3 0.5 C 0 km/h
531 10-01-2011 10:12:02 0.2 C 4.27 g/m*3 0.2 C 0 km/h
532 10-01-2011 10:24:02 0.5 C 4.36 g/m*3 0.5 C 0 km/h
533 10-01-2011 10:36:02 0.7 C 4.37 g/m*3 0.7 C 0 km/h
534 10-01-2011 10:48:02 0.8 C 4.4 g/m*3 0.8 C 0 km/h
535 10-01-2011 11:00:02 1.1 C 4.39 g/m*3 1.1 C 0 km/h
536 10-01-2011 11:12:01 0.5 C 4.16 g/m*3 0.5 C 0 km/h
537 10-01-2011 11:24:01 0.8 C 4.2 g/m*3 0.8 C 0 km/h
538 10-01-2011 11:36:02 0.8 C 4.15 g/m*3 0.8 C 0 km/h
539 10-01-2011 11:48:02 1.2 C 4.21 g/m*3 1.2 C 0 km/h
540 10-01-2011 12:00:02 1.3 C 4.24 g/m*3 1.3 C 0 km/h
541 10-01-2011 12:12:02 1.7 C 4.3 g/m*3 1.7 C 0 km/h
542 10-01-2011 12:24:01 2.1 C 4.36 g/m*3 2.1 C 0 km/h
543 10-01-2011 12:36:02 2 C 4.33 g/m*3 2 C 0 km/h
544 10-01-2011 12:48:02 1.8 C 4.28 g/m*3 1.8 C 0 km/h
545 10-01-2011 13:00:02 2.1 C 4.36 g/m*3 2.1 C 0 km/h
546 10-01-2011 13:12:02 2 C 4.33 g/m*3 2 C 0 km/h
547 10-01-2011 13:24:01 2 C 4.39 g/m*3 2 C 0 km/h
548 10-01-2011 13:36:02 2.2 C 4.45 g/m*3 2.2 C 0 km/h
549 10-01-2011 13:48:02 2.2 C 4.39 g/m*3 2.2 C 0 km/h
550 10-01-2011 14:00:02 2.4 C 4.45 g/m*3 2.4 C 0 km/h
Sensor: Nr:Datum:Temp:Abs-Feuchte:Windchill:Wind:
Aussen-T/F 551 10-01-2011 14:12:02 2.5 C 4.48 g/m*3 2.5 C 0 km/h
552 10-01-2011 14:24:02 2.3 C 4.48 g/m*3 2.3 C 0 km/h
553 10-01-2011 14:36:02 2.1 C 4.36 g/m*3 2.1 C 0 km/h
554 10-01-2011 14:48:02 2 C 4.33 g/m*3 2 C 0 km/h
555 10-01-2011 15:00:02 2 C 4.33 g/m*3 2 C 0 km/h
556 10-01-2011 15:12:02 2.1 C 4.36 g/m*3 2.1 C 0 km/h
557 10-01-2011 15:24:02 2.1 C 4.36 g/m*3 2.1 C 0 km/h
558 10-01-2011 15:36:01 2.2 C 4.39 g/m*3 2.2 C 0 km/h
559 10-01-2011 15:48:02 2.1 C 4.36 g/m*3 2.1 C 0 km/h
560 10-01-2011 16:00:02 2.1 C 4.36 g/m*3 2.1 C 0 km/h
561 10-01-2011 16:12:01 2 C 4.33 g/m*3 2 C 0 km/h
562 10-01-2011 16:24:02 1.9 C 4.36 g/m*3 1.9 C 0 km/h
563 10-01-2011 16:36:02 1.8 C 4.33 g/m*3 1.8 C 0 km/h
564 10-01-2011 16:48:02 1.5 C 4.24 g/m*3 1.5 C 0 km/h
565 10-01-2011 17:00:02 1.2 C 4.21 g/m*3 1.2 C 0 km/h
566 10-01-2011 17:12:02 0.8 C 4.2 g/m*3 0.8 C 0 km/h
567 10-01-2011 17:24:02 0.7 C 4.22 g/m*3 0.7 C 0 km/h
568 10-01-2011 17:36:02 0.7 C 4.27 g/m*3 0.7 C 0 km/h
569 10-01-2011 17:48:02 0.8 C 4.3 g/m*3 0.8 C 0 km/h
570 10-01-2011 18:00:02 0.7 C 4.27 g/m*3 0.7 C 0 km/h
571 10-01-2011 18:12:01 0.4 C 4.18 g/m*3 0.4 C 0 km/h
572 10-01-2011 18:24:02 0.1 C 4.1 g/m*3 0.1 C 0 km/h
573 10-01-2011 18:36:02 -0.1 C 4.09 g/m*3 -0.1 C 0 km/h
574 10-01-2011 18:48:02 0 C 4.17 g/m*3 0 C 0 km/h
575 10-01-2011 19:00:02 0.1 C 4.24 g/m*3 0.1 C 0 km/h
Sensor: Nr:Datum:Temp:Abs-Feuchte:Windchill:Wind:
Aussen-T/F 576 10-01-2011 19:12:02 0.2 C 4.27 g/m*3 0.2 C 0 km/h
577 10-01-2011 19:24:02 0.2 C 4.32 g/m*3 0.2 C 0 km/h
578 10-01-2011 19:36:02 0.4 C 4.38 g/m*3 0.4 C 0 km/h
579 10-01-2011 19:48:02 0.4 C 4.38 g/m*3 0.4 C 0 km/h
580 10-01-2011 20:00:02 0.4 C 4.38 g/m*3 0.4 C 0 km/h
581 10-01-2011 20:12:02 0.6 C 4.39 g/m*3 0.6 C 0 km/h
582 10-01-2011 20:24:01 0.8 C 4.4 g/m*3 0.8 C 0 km/h
583 10-01-2011 20:36:02 0.8 C 4.3 g/m*3 0.8 C 0 km/h
584 10-01-2011 20:48:02 0.8 C 4.25 g/m*3 0.8 C 0 km/h
585 10-01-2011 21:00:02 0.7 C 4.12 g/m*3 0.7 C 0 km/h
586 10-01-2011 21:12:02 0.6 C 4.04 g/m*3 0.6 C 0 km/h
587 10-01-2011 21:24:01 0.5 C 4.01 g/m*3 0.5 C 0 km/h
588 10-01-2011 21:36:02 0.5 C 4.01 g/m*3 0.5 C 0 km/h
589 10-01-2011 21:48:02 0.5 C 4.01 g/m*3 0.5 C 0 km/h
590 10-01-2011 22:00:02 0.5 C 4.06 g/m*3 0.5 C 0 km/h
591 10-01-2011 22:12:02 0.5 C 4.06 g/m*3 0.5 C 0 km/h
592 10-01-2011 22:25:04 0.5 C 4.06 g/m*3 0.5 C 0 km/h
593 10-01-2011 22:37:04 0.5 C 4.06 g/m*3 0.5 C 0 km/h
594 10-01-2011 22:49:04 0.5 C 4.01 g/m*3 0.5 C 0 km/h
595 10-01-2011 23:01:04 0.5 C 4.01 g/m*3 0.5 C 0 km/h
596 10-01-2011 23:13:04 0.5 C 4.01 g/m*3 0.5 C 0 km/h
597 10-01-2011 23:25:04 0.5 C 4.01 g/m*3 0.5 C 0 km/h
598 10-01-2011 23:37:04 0.6 C 4.09 g/m*3 0.6 C 0 km/h
599 10-01-2011 23:49:04 0.6 C 4.09 g/m*3 0.6 C 0 km/h
600 11-01-2011 00:01:04 0.6 C 4.04 g/m*3 0.6 C 0 km/h
Sensor: Nr:Datum:Temp:Abs-Feuchte:Windchill:Wind:
Aussen-T/F 601 11-01-2011 00:13:05 0.5 C 3.96 g/m*3 0.5 C 0 km/h
602 11-01-2011 00:25:05 0.3 C 3.96 g/m*3 0.3 C 0 km/h
603 11-01-2011 00:37:05 -0.2 C 3.82 g/m*3 -0.2 C 0 km/h
604 11-01-2011 00:49:05 -0.4 C 3.86 g/m*3 -0.4 C 0 km/h
605 11-01-2011 01:01:05 -0.2 C 4.01 g/m*3 -0.2 C 0 km/h
606 11-01-2011 01:13:05 -0.1 C 4.04 g/m*3 -0.1 C 0 km/h
607 11-01-2011 01:25:05 -0.4 C 4.01 g/m*3 -0.4 C 0 km/h
608 11-01-2011 01:37:05 -0.1 C 4.14 g/m*3 -0.1 C 0 km/h
609 11-01-2011 01:49:05 0.2 C 4.22 g/m*3 0.2 C 0 km/h
610 11-01-2011 02:01:05 0.6 C 4.29 g/m*3 0.6 C 0 km/h
611 11-01-2011 02:13:05 0.7 C 4.22 g/m*3 0.7 C 0 km/h
612 11-01-2011 02:25:05 0.8 C 4.2 g/m*3 0.8 C 0 km/h
613 11-01-2011 02:37:05 1 C 4.1 g/m*3 1 C 0 km/h
614 11-01-2011 02:49:05 0.8 C 4.04 g/m*3 0.8 C 0 km/h
615 11-01-2011 03:01:05 0.8 C 4.04 g/m*3 0.8 C 0 km/h
616 11-01-2011 03:13:05 0.8 C 4.04 g/m*3 0.8 C 0 km/h
617 11-01-2011 03:25:05 0.6 C 4.04 g/m*3 0.6 C 0 km/h
618 11-01-2011 03:37:05 0.8 C 4.1 g/m*3 0.8 C 0 km/h
619 11-01-2011 03:49:05 0.6 C 4.04 g/m*3 0.6 C 0 km/h
620 11-01-2011 04:01:05 0.3 C 3.96 g/m*3 0.3 C 0 km/h
621 11-01-2011 04:13:06 0.2 C 3.98 g/m*3 0.2 C 0 km/h
622 11-01-2011 04:25:06 0.1 C 4 g/m*3 0.1 C 0 km/h
623 11-01-2011 04:37:06 0.6 C 4.14 g/m*3 0.6 C 0 km/h
624 11-01-2011 04:49:06 0.9 C 4.18 g/m*3 0.9 C 0 km/h
625 11-01-2011 05:01:06 1.1 C 4.13 g/m*3 1.1 C 0 km/h
Sensor: Nr:Datum:Temp:Abs-Feuchte:Windchill:Wind:
Aussen-T/F 626 11-01-2011 05:13:06 1.1 C 4.13 g/m*3 1.1 C 0 km/h
627 11-01-2011 05:25:06 1.1 C 4.13 g/m*3 1.1 C 0 km/h
628 11-01-2011 05:37:06 1.1 C 4.13 g/m*3 1.1 C 0 km/h
629 11-01-2011 05:49:06 1.1 C 4.13 g/m*3 1.1 C 0 km/h
630 11-01-2011 06:01:06 1.2 C 4.16 g/m*3 1.2 C 0 km/h
631 11-01-2011 06:13:06 1.2 C 4.16 g/m*3 1.2 C 0 km/h
632 11-01-2011 06:25:06 1.3 C 4.19 g/m*3 1.3 C 0 km/h
633 11-01-2011 06:37:06 1.3 C 4.24 g/m*3 1.3 C 0 km/h
634 11-01-2011 06:49:06 1.3 C 4.24 g/m*3 1.3 C 0 km/h
635 11-01-2011 07:01:06 1.4 C 4.27 g/m*3 1.4 C 0 km/h
636 11-01-2011 07:13:06 1.4 C 4.32 g/m*3 1.4 C 0 km/h
637 11-01-2011 07:25:03 1.4 C 4.32 g/m*3 1.4 C 0 km/h
638 11-01-2011 07:37:03 1.4 C 4.32 g/m*3 1.4 C 0 km/h
639 11-01-2011 07:49:02 1.5 C 4.4 g/m*3 1.5 C 0 km/h
640 11-01-2011 08:01:02 1.5 C 4.4 g/m*3 1.5 C 0 km/h
641 11-01-2011 08:13:02 1.5 C 4.4 g/m*3 1.5 C 0 km/h
642 11-01-2011 08:25:03 1.5 C 4.46 g/m*3 1.5 C 0 km/h
643 11-01-2011 08:37:02 1.5 C 4.46 g/m*3 1.5 C 0 km/h
644 11-01-2011 08:49:03 1.5 C 4.51 g/m*3 1.5 C 0 km/h
645 11-01-2011 09:01:02 1.6 C 4.54 g/m*3 1.6 C 0 km/h
646 11-01-2011 09:13:02 1.8 C 4.66 g/m*3 1.8 C 0 km/h
647 11-01-2011 09:25:02 2 C 4.67 g/m*3 2 C 0 km/h
648 11-01-2011 09:37:02 2.3 C 4.71 g/m*3 2.3 C 0 km/h
649 11-01-2011 09:49:02 2.6 C 4.75 g/m*3 2.6 C 0 km/h
650 11-01-2011 10:01:02 2.9 C 4.72 g/m*3 2.9 C 0 km/h
Sensor: Nr:Datum:Temp:Abs-Feuchte:Windchill:Wind:
Aussen-T/F 651 11-01-2011 10:13:02 3.2 C 4.7 g/m*3 3.2 C 0 km/h
652 11-01-2011 10:25:02 3.2 C 4.58 g/m*3 3.2 C 0 km/h
653 11-01-2011 10:37:02 3.2 C 4.58 g/m*3 3.2 C 0 km/h
654 11-01-2011 10:49:02 2.7 C 4.54 g/m*3 2.7 C 0 km/h
655 11-01-2011 11:01:02 2.5 C 4.6 g/m*3 2.5 C 0 km/h
656 11-01-2011 11:13:02 2.6 C 4.75 g/m*3 2.6 C 0 km/h
657 11-01-2011 11:25:02 2.8 C 4.87 g/m*3 2.8 C 0 km/h
658 11-01-2011 11:37:02 3.7 C 5.17 g/m*3 3.7 C 0 km/h
659 11-01-2011 11:49:02 4.8 C 5.1 g/m*3 4.8 C 0 km/h
660 11-01-2011 12:01:02 5.4 C 4.74 g/m*3 5.4 C 0 km/h
661 11-01-2011 12:13:02 5.7 C 4.63 g/m*3 5.7 C 0 km/h
662 11-01-2011 12:25:02 5.7 C 4.55 g/m*3 5.7 C 0 km/h
663 11-01-2011 12:37:01 5.6 C 4.6 g/m*3 5.6 C 0 km/h
664 11-01-2011 12:49:02 5.1 C 4.58 g/m*3 5.1 C 0 km/h
665 11-01-2011 13:01:01 5.2 C 4.75 g/m*3 5.2 C 0 km/h
666 11-01-2011 13:13:01 5.1 C 4.72 g/m*3 5.1 C 0 km/h
667 11-01-2011 13:25:01 5.3 C 4.71 g/m*3 5.3 C 0 km/h
668 11-01-2011 13:37:02 5.5 C 4.85 g/m*3 5.5 C 0 km/h
669 11-01-2011 13:49:02 5.4 C 4.74 g/m*3 5.4 C 0 km/h
670 11-01-2011 14:01:02 5.3 C 4.85 g/m*3 5.3 C 0 km/h
671 11-01-2011 14:13:02 5.3 C 4.92 g/m*3 5.3 C 0 km/h
672 11-01-2011 14:25:02 5.3 C 4.85 g/m*3 5.3 C 0 km/h
673 11-01-2011 14:37:02 5.3 C 4.92 g/m*3 5.3 C 0 km/h
674 11-01-2011 14:49:02 5.3 C 4.92 g/m*3 5.3 C 0 km/h
675 11-01-2011 15:01:02 5.3 C 5.06 g/m*3 5.3 C 0 km/h
Sensor: Nr:Datum:Temp:Abs-Feuchte:Windchill:Wind:
Aussen-T/F 676 11-01-2011 15:13:02 5.5 C 5.06 g/m*3 5.5 C 0 km/h
677 11-01-2011 15:25:02 5.6 C 5.02 g/m*3 5.6 C 0 km/h
678 11-01-2011 15:37:02 5.3 C 5.06 g/m*3 5.3 C 0 km/h
679 11-01-2011 15:49:01 5.1 C 5.13 g/m*3 5.1 C 0 km/h
680 11-01-2011 16:01:01 4.8 C 5.3 g/m*3 4.8 C 0 km/h
681 11-01-2011 16:13:01 4.6 C 5.43 g/m*3 4.6 C 0 km/h
682 11-01-2011 16:25:02 4.5 C 5.46 g/m*3 4.5 C 0 km/h
683 11-01-2011 16:37:01 4.5 C 5.46 g/m*3 4.5 C 0 km/h
684 11-01-2011 16:49:03 4.5 C 5.46 g/m*3 4.5 C 0 km/h
685 11-01-2011 17:01:02 4.7 C 5.53 g/m*3 4.7 C 0 km/h
686 11-01-2011 17:13:02 4.7 C 5.46 g/m*3 4.7 C 0 km/h
687 11-01-2011 17:25:02 5.2 C 5.44 g/m*3 5.2 C 0 km/h
688 11-01-2011 17:37:02 5.4 C 5.44 g/m*3 5.4 C 0 km/h
689 11-01-2011 17:49:02 5.5 C 5.41 g/m*3 5.5 C 0 km/h
690 11-01-2011 18:01:02 5.3 C 5.41 g/m*3 5.3 C 0 km/h
691 11-01-2011 18:13:02 5.3 C 5.48 g/m*3 5.3 C 0 km/h
692 11-01-2011 18:25:02 5.4 C 5.51 g/m*3 5.4 C 0 km/h
693 11-01-2011 18:37:02 5.6 C 5.59 g/m*3 5.6 C 0 km/h
694 11-01-2011 18:49:02 5.8 C 5.59 g/m*3 5.8 C 0 km/h
695 11-01-2011 19:01:01 6 C 5.52 g/m*3 6 C 0 km/h
696 11-01-2011 19:13:01 6 C 5.52 g/m*3 6 C 0 km/h
697 11-01-2011 19:25:01 6 C 5.59 g/m*3 6 C 0 km/h
698 11-01-2011 19:37:02 6 C 5.59 g/m*3 6 C 0 km/h
699 11-01-2011 19:49:02 5.9 C 5.62 g/m*3 5.9 C 0 km/h
700 11-01-2011 20:01:02 6 C 5.59 g/m*3 6 C 0 km/h
Sensor: Nr:Datum:Temp:Abs-Feuchte:Windchill:Wind:
Aussen-T/F 701 11-01-2011 20:13:02 6.1 C 5.63 g/m*3 6.1 C 0 km/h
702 11-01-2011 20:25:02 6.1 C 5.63 g/m*3 6.1 C 0 km/h
703 11-01-2011 20:37:02 6.2 C 5.59 g/m*3 6.2 C 0 km/h
704 11-01-2011 20:49:02 6.3 C 5.55 g/m*3 6.3 C 0 km/h
705 11-01-2011 21:01:02 6.3 C 5.63 g/m*3 6.3 C 0 km/h
706 11-01-2011 21:13:02 6.3 C 5.63 g/m*3 6.3 C 0 km/h
707 11-01-2011 21:25:02 6.1 C 5.63 g/m*3 6.1 C 0 km/h
708 11-01-2011 21:37:02 6.1 C 5.7 g/m*3 6.1 C 0 km/h
709 11-01-2011 21:50:03 6 C 5.73 g/m*3 6 C 0 km/h
710 11-01-2011 22:02:03 5.8 C 5.8 g/m*3 5.8 C 0 km/h
711 11-01-2011 22:14:03 5.9 C 5.91 g/m*3 5.9 C 0 km/h
712 11-01-2011 22:26:03 5.9 C 5.91 g/m*3 5.9 C 0 km/h
713 11-01-2011 22:38:03 6.3 C 6 g/m*3 6.3 C 0 km/h
714 11-01-2011 22:50:03 5.9 C 5.91 g/m*3 5.9 C 0 km/h
715 11-01-2011 23:02:03 5.9 C 6.06 g/m*3 5.9 C 0 km/h
716 11-01-2011 23:14:03 5.9 C 6.06 g/m*3 5.9 C 0 km/h
717 11-01-2011 23:26:03 6 C 6.02 g/m*3 6 C 0 km/h
718 11-01-2011 23:38:03 6.1 C 5.99 g/m*3 6.1 C 0 km/h
719 11-01-2011 23:50:03 6.1 C 5.92 g/m*3 6.1 C 0 km/h
720 12-01-2011 00:02:03 6.3 C 5.77 g/m*3 6.3 C 0 km/h
721 12-01-2011 00:14:03 6.5 C 5.62 g/m*3 6.5 C 0 km/h
722 12-01-2011 00:26:03 6.2 C 5.37 g/m*3 6.2 C 0 km/h
723 12-01-2011 00:38:03 5.9 C 5.26 g/m*3 5.9 C 0 km/h
724 12-01-2011 00:50:04 5.8 C 5.3 g/m*3 5.8 C 0 km/h
725 12-01-2011 01:02:04 5.9 C 5.34 g/m*3 5.9 C 0 km/h
Sensor: Nr:Datum:Temp:Abs-Feuchte:Windchill:Wind:
Aussen-T/F 726 12-01-2011 01:14:04 5.8 C 5.3 g/m*3 5.8 C 0 km/h
727 12-01-2011 01:26:04 6 C 5.23 g/m*3 6 C 0 km/h
728 12-01-2011 01:38:04 6 C 5.15 g/m*3 6 C 0 km/h
729 12-01-2011 01:50:04 6.1 C 5.11 g/m*3 6.1 C 0 km/h
730 12-01-2011 02:02:04 6 C 5.08 g/m*3 6 C 0 km/h
731 12-01-2011 02:14:04 6 C 5.08 g/m*3 6 C 0 km/h
732 12-01-2011 02:26:04 5.9 C 5.12 g/m*3 5.9 C 0 km/h
733 12-01-2011 02:38:04 5.9 C 5.05 g/m*3 5.9 C 0 km/h
734 12-01-2011 02:50:04 5.7 C 4.98 g/m*3 5.7 C 0 km/h
735 12-01-2011 03:02:04 5.5 C 4.99 g/m*3 5.5 C 0 km/h
736 12-01-2011 03:14:04 5 C 5.1 g/m*3 5 C 0 km/h
737 12-01-2011 03:26:04 4.9 C 5.27 g/m*3 4.9 C 0 km/h
738 12-01-2011 03:38:04 4.7 C 5.26 g/m*3 4.7 C 0 km/h
739 12-01-2011 03:50:04 4.5 C 5.26 g/m*3 4.5 C 0 km/h
740 12-01-2011 04:02:04 4.3 C 5.32 g/m*3 4.3 C 0 km/h
741 12-01-2011 04:14:04 4.3 C 5.32 g/m*3 4.3 C 0 km/h
742 12-01-2011 04:26:04 4.1 C 5.31 g/m*3 4.1 C 0 km/h
743 12-01-2011 04:38:04 3.9 C 5.37 g/m*3 3.9 C 0 km/h
744 12-01-2011 04:50:05 3.8 C 5.4 g/m*3 3.8 C 0 km/h
745 12-01-2011 05:02:05 3.8 C 5.33 g/m*3 3.8 C 0 km/h
746 12-01-2011 05:14:05 3.8 C 5.27 g/m*3 3.8 C 0 km/h
747 12-01-2011 05:26:05 3.7 C 5.23 g/m*3 3.7 C 0 km/h
748 12-01-2011 05:38:05 3.7 C 5.17 g/m*3 3.7 C 0 km/h
749 12-01-2011 05:50:05 3.8 C 5.21 g/m*3 3.8 C 0 km/h
750 12-01-2011 06:02:05 3.6 C 5.14 g/m*3 3.6 C 0 km/h
Sensor: Nr:Datum:Temp:Abs-Feuchte:Windchill:Wind:
Aussen-T/F 751 12-01-2011 06:14:05 3.5 C 5.16 g/m*3 3.5 C 0 km/h
752 12-01-2011 06:26:05 3.6 C 5.14 g/m*3 3.6 C 0 km/h
753 12-01-2011 06:38:05 3.6 C 5.14 g/m*3 3.6 C 0 km/h
754 12-01-2011 06:50:05 3.5 C 5.04 g/m*3 3.5 C 0 km/h
755 12-01-2011 07:02:02 3.5 C 5.04 g/m*3 3.5 C 0 km/h
756 12-01-2011 07:14:02 3.6 C 5.08 g/m*3 3.6 C 0 km/h
757 12-01-2011 07:26:02 3.3 C 4.97 g/m*3 3.3 C 0 km/h
758 12-01-2011 07:38:02 3.1 C 4.97 g/m*3 3.1 C 0 km/h
759 12-01-2011 07:50:01 3.1 C 5.03 g/m*3 3.1 C 0 km/h
760 12-01-2011 08:02:01 3 C 4.99 g/m*3 3 C 0 km/h
761 12-01-2011 08:14:01 2.8 C 4.93 g/m*3 2.8 C 0 km/h
762 12-01-2011 08:26:01 3.1 C 5.03 g/m*3 3.1 C 0 km/h
763 12-01-2011 08:38:01 3 C 4.99 g/m*3 3 C 0 km/h
764 12-01-2011 08:50:01 3 C 4.99 g/m*3 3 C 0 km/h
765 12-01-2011 09:02:01 3.5 C 5.16 g/m*3 3.5 C 0 km/h
766 12-01-2011 09:14:01 3.5 C 5.04 g/m*3 3.5 C 0 km/h
767 12-01-2011 09:26:02 3.7 C 5.11 g/m*3 3.7 C 0 km/h
768 12-01-2011 09:38:01 4 C 4.96 g/m*3 4 C 0 km/h
769 12-01-2011 09:50:02 4.5 C 4.93 g/m*3 4.5 C 0 km/h
770 12-01-2011 10:02:02 4.6 C 4.83 g/m*3 4.6 C 0 km/h
771 12-01-2011 10:14:02 4.7 C 4.93 g/m*3 4.7 C 0 km/h
772 12-01-2011 10:26:01 4.9 C 4.93 g/m*3 4.9 C 0 km/h
773 12-01-2011 10:38:02 4.9 C 4.86 g/m*3 4.9 C 0 km/h
774 12-01-2011 10:50:02 5 C 4.82 g/m*3 5 C 0 km/h
775 12-01-2011 11:02:02 5.1 C 4.86 g/m*3 5.1 C 0 km/h
Sensor: Nr:Datum:Temp:Abs-Feuchte:Windchill:Wind:
Aussen-T/F 776 12-01-2011 11:14:02 5.2 C 4.82 g/m*3 5.2 C 0 km/h
777 12-01-2011 11:26:01 5.4 C 4.81 g/m*3 5.4 C 0 km/h
778 12-01-2011 11:38:02 5.3 C 4.85 g/m*3 5.3 C 0 km/h
779 12-01-2011 11:50:01 5.3 C 4.92 g/m*3 5.3 C 0 km/h
780 12-01-2011 12:02:02 5.2 C 4.96 g/m*3 5.2 C 0 km/h
781 12-01-2011 12:14:02 5 C 5.03 g/m*3 5 C 0 km/h
782 12-01-2011 12:26:02 4.8 C 5.1 g/m*3 4.8 C 0 km/h
783 12-01-2011 12:38:02 4.7 C 5.13 g/m*3 4.7 C 0 km/h
784 12-01-2011 12:50:02 4.7 C 5.2 g/m*3 4.7 C 0 km/h
785 12-01-2011 13:02:02 4.7 C 5.2 g/m*3 4.7 C 0 km/h
786 12-01-2011 13:14:03 4.9 C 5.33 g/m*3 4.9 C 0 km/h
787 12-01-2011 13:26:01 5 C 5.37 g/m*3 5 C 0 km/h
788 12-01-2011 13:38:46 5 C 5.44 g/m*3 5 C 0 km/h
789 12-01-2011 13:50:02 4.9 C 5.54 g/m*3 4.9 C 0 km/h
790 12-01-2011 14:02:02 5 C 5.5 g/m*3 5 C 0 km/h
791 12-01-2011 14:14:02 5.1 C 5.47 g/m*3 5.1 C 0 km/h
792 12-01-2011 14:26:02 5.1 C 5.54 g/m*3 5.1 C 0 km/h
793 12-01-2011 14:38:02 5.1 C 5.54 g/m*3 5.1 C 0 km/h
794 12-01-2011 14:50:02 5.3 C 5.54 g/m*3 5.3 C 0 km/h
795 12-01-2011 15:02:01 5.6 C 5.51 g/m*3 5.6 C 0 km/h
796 12-01-2011 15:14:01 5.4 C 5.44 g/m*3 5.4 C 0 km/h
797 12-01-2011 15:26:02 5.2 C 5.44 g/m*3 5.2 C 0 km/h
798 12-01-2011 15:38:02 5.3 C 5.54 g/m*3 5.3 C 0 km/h
799 12-01-2011 15:50:02 5.6 C 5.59 g/m*3 5.6 C 0 km/h
800 12-01-2011 16:02:02 6 C 5.44 g/m*3 6 C 0 km/h
Sensor: Nr:Datum:Temp:Abs-Feuchte:Windchill:Wind:
Aussen-T/F 801 12-01-2011 16:14:02 5.9 C 5.48 g/m*3 5.9 C 0 km/h
802 12-01-2011 16:26:02 6 C 5.44 g/m*3 6 C 0 km/h
803 12-01-2011 16:38:02 6.1 C 5.48 g/m*3 6.1 C 0 km/h
804 12-01-2011 16:50:02 6.2 C 5.52 g/m*3 6.2 C 0 km/h
805 12-01-2011 17:02:02 6.2 C 5.52 g/m*3 6.2 C 0 km/h
806 12-01-2011 17:14:02 6.3 C 5.55 g/m*3 6.3 C 0 km/h
807 12-01-2011 17:26:02 6.4 C 5.59 g/m*3 6.4 C 0 km/h
808 12-01-2011 17:38:02 6 C 5.59 g/m*3 6 C 0 km/h
809 12-01-2011 17:50:01 6.1 C 5.77 g/m*3 6.1 C 0 km/h
810 12-01-2011 18:02:02 6.3 C 5.77 g/m*3 6.3 C 0 km/h
811 12-01-2011 18:14:02 6 C 5.81 g/m*3 6 C 0 km/h
812 12-01-2011 18:26:01 6 C 5.88 g/m*3 6 C 0 km/h
813 12-01-2011 18:38:01 6.2 C 6.03 g/m*3 6.2 C 0 km/h
814 12-01-2011 18:50:01 6.1 C 6.06 g/m*3 6.1 C 0 km/h
815 12-01-2011 19:02:01 6.1 C 6.06 g/m*3 6.1 C 0 km/h
816 12-01-2011 19:14:01 6 C 6.1 g/m*3 6 C 0 km/h
817 12-01-2011 19:26:02 6.3 C 6.22 g/m*3 6.3 C 0 km/h
818 12-01-2011 19:38:01 6.5 C 6.22 g/m*3 6.5 C 0 km/h
819 12-01-2011 19:50:02 6.6 C 6.27 g/m*3 6.6 C 0 km/h
820 12-01-2011 20:02:02 6.9 C 6.31 g/m*3 6.9 C 0 km/h
821 12-01-2011 20:14:02 6.8 C 6.27 g/m*3 6.8 C 0 km/h
822 12-01-2011 20:26:02 7 C 6.28 g/m*3 7 C 0 km/h
823 12-01-2011 20:38:02 7.1 C 6.24 g/m*3 7.1 C 0 km/h
824 12-01-2011 20:50:02 7.1 C 6.32 g/m*3 7.1 C 0 km/h
825 12-01-2011 21:02:01 7.1 C 6.4 g/m*3 7.1 C 0 km/h
Sensor: Nr:Datum:Temp:Abs-Feuchte:Windchill:Wind:
Aussen-T/F 826 12-01-2011 21:14:01 7.2 C 6.44 g/m*3 7.2 C 0 km/h
827 12-01-2011 21:26:02 7.5 C 6.64 g/m*3 7.5 C 0 km/h
828 12-01-2011 21:38:02 7.5 C 6.56 g/m*3 7.5 C 0 km/h
829 12-01-2011 21:50:02 7.4 C 6.52 g/m*3 7.4 C 0 km/h
830 12-01-2011 22:02:02 7.7 C 6.73 g/m*3 7.7 C 0 km/h
831 12-01-2011 22:14:02 7.7 C 6.65 g/m*3 7.7 C 0 km/h
832 12-01-2011 22:26:02 7.9 C 6.74 g/m*3 7.9 C 0 km/h
833 12-01-2011 22:38:02 8.2 C 6.7 g/m*3 8.2 C 0 km/h
834 12-01-2011 22:50:02 8.3 C 6.74 g/m*3 8.3 C 0 km/h
835 12-01-2011 23:02:02 8.5 C 6.74 g/m*3 8.5 C 0 km/h
836 12-01-2011 23:14:02 8.7 C 6.83 g/m*3 8.7 C 0 km/h
837 12-01-2011 23:26:01 8.8 C 6.88 g/m*3 8.8 C 0 km/h
838 12-01-2011 23:38:02 8.9 C 6.83 g/m*3 8.9 C 0 km/h
839 12-01-2011 23:50:02 8.9 C 6.83 g/m*3 8.9 C 0 km/h
840 13-01-2011 00:02:02 9 C 6.88 g/m*3 9 C 0 km/h
841 13-01-2011 00:14:02 9.3 C 6.92 g/m*3 9.3 C 0 km/h
842 13-01-2011 00:26:02 9.3 C 7.01 g/m*3 9.3 C 0 km/h
843 13-01-2011 00:38:02 9.4 C 7.05 g/m*3 9.4 C 0 km/h
844 13-01-2011 00:50:01 9.5 C 7.1 g/m*3 9.5 C 0 km/h
845 13-01-2011 01:02:02 9.7 C 7.19 g/m*3 9.7 C 0 km/h
846 13-01-2011 01:14:02 9.9 C 7.28 g/m*3 9.9 C 0 km/h
847 13-01-2011 01:26:02 10 C 7.24 g/m*3 10 C 0 km/h
848 13-01-2011 01:38:02 10.1 C 7.28 g/m*3 10.1 C 0 km/h
849 13-01-2011 01:50:02 10.2 C 7.33 g/m*3 10.2 C 0 km/h
850 13-01-2011 02:02:02 10.5 C 7.37 g/m*3 10.5 C 0 km/h
Sensor: Nr:Datum:Temp:Abs-Feuchte:Windchill:Wind:
Aussen-T/F 851 13-01-2011 02:14:02 10.7 C 7.56 g/m*3 10.7 C 0 km/h
852 13-01-2011 02:26:02 10.7 C 7.56 g/m*3 10.7 C 0 km/h
853 13-01-2011 02:38:01 10.7 C 7.66 g/m*3 10.7 C 0 km/h
854 13-01-2011 02:50:02 10.4 C 7.61 g/m*3 10.4 C 0 km/h
855 13-01-2011 03:02:02 10.4 C 7.71 g/m*3 10.4 C 0 km/h
856 13-01-2011 03:14:01 10.3 C 7.85 g/m*3 10.3 C 0 km/h
857 13-01-2011 03:26:01 10.3 C 7.85 g/m*3 10.3 C 0 km/h
858 13-01-2011 03:38:02 10.3 C 7.85 g/m*3 10.3 C 0 km/h
859 13-01-2011 03:50:02 10.3 C 7.95 g/m*3 10.3 C 0 km/h
860 13-01-2011 04:02:01 10.5 C 8.05 g/m*3 10.5 C 0 km/h
861 13-01-2011 04:14:01 10.6 C 8.1 g/m*3 10.6 C 0 km/h
862 13-01-2011 04:26:02 10.9 C 8.16 g/m*3 10.9 C 0 km/h
863 13-01-2011 04:38:01 10.7 C 7.96 g/m*3 10.7 C 0 km/h
864 13-01-2011 04:50:02 10.8 C 8.01 g/m*3 10.8 C 0 km/h
865 13-01-2011 05:02:01 11 C 8.01 g/m*3 11 C 0 km/h
866 13-01-2011 05:14:01 11.1 C 8.16 g/m*3 11.1 C 0 km/h
867 13-01-2011 05:26:01 10.7 C 8.05 g/m*3 10.7 C 0 km/h
868 13-01-2011 05:38:02 10.8 C 8.2 g/m*3 10.8 C 0 km/h
869 13-01-2011 05:50:01 10.6 C 8.2 g/m*3 10.6 C 0 km/h
870 13-01-2011 06:02:02 10.7 C 8.25 g/m*3 10.7 C 0 km/h
871 13-01-2011 06:14:02 10.5 C 8.24 g/m*3 10.5 C 0 km/h
872 13-01-2011 06:26:01 10.6 C 8.3 g/m*3 10.6 C 0 km/h
873 13-01-2011 06:38:02 10.6 C 8.39 g/m*3 10.6 C 0 km/h
874 13-01-2011 06:50:01 10.5 C 8.34 g/m*3 10.5 C 0 km/h
875 13-01-2011 07:02:01 10.6 C 8.39 g/m*3 10.6 C 0 km/h
Sensor: Nr:Datum:Temp:Abs-Feuchte:Windchill:Wind:
Aussen-T/F 876 13-01-2011 07:14:02 10.5 C 8.44 g/m*3 10.5 C 0 km/h
877 13-01-2011 07:26:01 10.7 C 8.55 g/m*3 10.7 C 0 km/h
878 13-01-2011 07:38:01 10.7 C 8.45 g/m*3 10.7 C 0 km/h
879 13-01-2011 07:50:01 10.8 C 8.5 g/m*3 10.8 C 0 km/h
880 13-01-2011 08:02:01 10.9 C 8.55 g/m*3 10.9 C 0 km/h
881 13-01-2011 08:14:01 10.8 C 8.5 g/m*3 10.8 C 0 km/h
882 13-01-2011 08:26:02 10.8 C 8.4 g/m*3 10.8 C 0 km/h
883 13-01-2011 08:38:01 10.8 C 8.4 g/m*3 10.8 C 0 km/h
884 13-01-2011 08:50:02 10.9 C 8.45 g/m*3 10.9 C 0 km/h
885 13-01-2011 09:02:01 10.9 C 8.45 g/m*3 10.9 C 0 km/h
886 13-01-2011 09:14:01 11.2 C 8.51 g/m*3 11.2 C 0 km/h
887 13-01-2011 09:26:02 11.4 C 8.52 g/m*3 11.4 C 0 km/h
888 13-01-2011 09:38:01 11.4 C 8.42 g/m*3 11.4 C 0 km/h
889 13-01-2011 09:50:02 11.4 C 8.31 g/m*3 11.4 C 0 km/h
890 13-01-2011 10:02:01 11.5 C 8.37 g/m*3 11.5 C 0 km/h
891 13-01-2011 10:14:01 11.9 C 8.47 g/m*3 11.9 C 0 km/h
892 13-01-2011 10:26:01 11.8 C 8.31 g/m*3 11.8 C 0 km/h
893 13-01-2011 10:38:02 12.2 C 8.2 g/m*3 12.2 C 0 km/h
894 13-01-2011 10:50:01 12.3 C 8.25 g/m*3 12.3 C 0 km/h
895 13-01-2011 11:02:02 12.5 C 8.36 g/m*3 12.5 C 0 km/h
896 13-01-2011 11:14:02 12.3 C 8.25 g/m*3 12.3 C 0 km/h
897 13-01-2011 11:26:01 12.6 C 8.19 g/m*3 12.6 C 0 km/h
898 13-01-2011 11:38:01 12.5 C 8.25 g/m*3 12.5 C 0 km/h
899 13-01-2011 11:50:01 12.7 C 8.24 g/m*3 12.7 C 0 km/h
900 13-01-2011 12:02:01 12.6 C 8.3 g/m*3 12.6 C 0 km/h
Sensor: Nr:Datum:Temp:Abs-Feuchte:Windchill:Wind:
Aussen-T/F 901 13-01-2011 12:14:02 12.5 C 8.25 g/m*3 12.5 C 0 km/h
902 13-01-2011 12:26:01 12.4 C 8.3 g/m*3 12.4 C 0 km/h
903 13-01-2011 12:38:01 12.4 C 8.41 g/m*3 12.4 C 0 km/h
904 13-01-2011 12:50:01 12.4 C 8.3 g/m*3 12.4 C 0 km/h
905 13-01-2011 13:02:01 12.2 C 8.42 g/m*3 12.2 C 0 km/h
906 13-01-2011 13:14:01 12.2 C 8.42 g/m*3 12.2 C 0 km/h
907 13-01-2011 13:26:02 12.7 C 8.46 g/m*3 12.7 C 0 km/h
908 13-01-2011 13:38:01 12.7 C 8.35 g/m*3 12.7 C 0 km/h
909 13-01-2011 13:50:02 12.9 C 8.34 g/m*3 12.9 C 0 km/h
910 13-01-2011 14:02:01 13 C 8.28 g/m*3 13 C 0 km/h
911 13-01-2011 14:14:01 13 C 8.28 g/m*3 13 C 0 km/h
912 13-01-2011 14:26:02 13.2 C 8.27 g/m*3 13.2 C 0 km/h
913 13-01-2011 14:38:01 13.4 C 8.37 g/m*3 13.4 C 0 km/h
914 13-01-2011 14:50:01 13.3 C 8.2 g/m*3 13.3 C 0 km/h
915 13-01-2011 15:02:01 13.1 C 8.22 g/m*3 13.1 C 0 km/h
916 13-01-2011 15:14:01 13.2 C 8.27 g/m*3 13.2 C 0 km/h
917 13-01-2011 15:26:01 13.1 C 8.22 g/m*3 13.1 C 0 km/h
918 13-01-2011 15:38:02 13 C 8.28 g/m*3 13 C 0 km/h
919 13-01-2011 15:50:01 12.9 C 8.34 g/m*3 12.9 C 0 km/h
920 13-01-2011 16:02:02 12.9 C 8.45 g/m*3 12.9 C 0 km/h
921 13-01-2011 16:14:02 12.9 C 8.45 g/m*3 12.9 C 0 km/h
922 13-01-2011 16:26:01 13 C 8.39 g/m*3 13 C 0 km/h
923 13-01-2011 16:38:01 12.8 C 8.51 g/m*3 12.8 C 0 km/h
924 13-01-2011 16:50:01 12.9 C 8.57 g/m*3 12.9 C 0 km/h
925 13-01-2011 17:02:01 12.8 C 8.51 g/m*3 12.8 C 0 km/h
Sensor: Nr:Datum:Temp:Abs-Feuchte:Windchill:Wind:
Aussen-T/F 926 13-01-2011 17:14:02 12.9 C 8.57 g/m*3 12.9 C 0 km/h
927 13-01-2011 17:26:01 12.7 C 8.46 g/m*3 12.7 C 0 km/h
928 13-01-2011 17:38:01 12.9 C 8.57 g/m*3 12.9 C 0 km/h
929 13-01-2011 17:50:01 13 C 8.39 g/m*3 13 C 0 km/h
930 13-01-2011 18:02:01 13 C 8.39 g/m*3 13 C 0 km/h
931 13-01-2011 18:14:01 12.9 C 8.45 g/m*3 12.9 C 0 km/h
932 13-01-2011 18:26:02 12.7 C 8.35 g/m*3 12.7 C 0 km/h
933 13-01-2011 18:38:01 12.8 C 8.51 g/m*3 12.8 C 0 km/h
934 13-01-2011 18:50:02 12.8 C 8.4 g/m*3 12.8 C 0 km/h
935 13-01-2011 19:02:01 12.9 C 8.57 g/m*3 12.9 C 0 km/h
936 13-01-2011 19:14:01 12.8 C 8.51 g/m*3 12.8 C 0 km/h
937 13-01-2011 19:26:02 12.8 C 8.51 g/m*3 12.8 C 0 km/h
938 13-01-2011 19:38:02 12.8 C 8.51 g/m*3 12.8 C 0 km/h
939 13-01-2011 19:50:01 12.8 C 8.4 g/m*3 12.8 C 0 km/h
940 13-01-2011 20:02:02 12.8 C 8.51 g/m*3 12.8 C 0 km/h
941 13-01-2011 20:14:02 12.7 C 8.46 g/m*3 12.7 C 0 km/h
942 13-01-2011 20:26:01 12.6 C 8.52 g/m*3 12.6 C 0 km/h
943 13-01-2011 20:38:01 12.7 C 8.57 g/m*3 12.7 C 0 km/h
944 13-01-2011 20:50:01 12.7 C 8.57 g/m*3 12.7 C 0 km/h
945 13-01-2011 21:02:01 12.7 C 8.46 g/m*3 12.7 C 0 km/h
946 13-01-2011 21:14:01 12.7 C 8.46 g/m*3 12.7 C 0 km/h
947 13-01-2011 21:26:01 12.8 C 8.51 g/m*3 12.8 C 0 km/h
948 13-01-2011 21:38:01 13 C 8.39 g/m*3 13 C 0 km/h
949 13-01-2011 21:50:01 12.9 C 8.45 g/m*3 12.9 C 0 km/h
950 13-01-2011 22:02:01 12.9 C 8.45 g/m*3 12.9 C 0 km/h
Sensor: Nr:Datum:Temp:Abs-Feuchte:Windchill:Wind:
Aussen-T/F 951 13-01-2011 22:14:01 12.8 C 8.4 g/m*3 12.8 C 0 km/h
952 13-01-2011 22:26:01 12.8 C 8.29 g/m*3 12.8 C 0 km/h
953 13-01-2011 22:38:02 12.8 C 8.29 g/m*3 12.8 C 0 km/h
954 13-01-2011 22:50:01 12.8 C 8.29 g/m*3 12.8 C 0 km/h
955 13-01-2011 23:02:02 12.9 C 8.34 g/m*3 12.9 C 0 km/h
956 13-01-2011 23:14:02 12.7 C 8.24 g/m*3 12.7 C 0 km/h
957 13-01-2011 23:26:01 12.7 C 8.24 g/m*3 12.7 C 0 km/h
958 13-01-2011 23:38:02 12.7 C 8.24 g/m*3 12.7 C 0 km/h
959 13-01-2011 23:50:01 12.7 C 8.24 g/m*3 12.7 C 0 km/h
960 14-01-2011 00:02:02 12.7 C 8.24 g/m*3 12.7 C 0 km/h
961 14-01-2011 00:14:02 12.5 C 8.14 g/m*3 12.5 C 0 km/h
962 14-01-2011 00:26:01 12.4 C 8.09 g/m*3 12.4 C 0 km/h
963 14-01-2011 00:38:02 12.5 C 8.14 g/m*3 12.5 C 0 km/h
964 14-01-2011 00:50:01 12.7 C 8.13 g/m*3 12.7 C 0 km/h
965 14-01-2011 01:02:02 12.5 C 8.14 g/m*3 12.5 C 0 km/h
966 14-01-2011 01:14:02 12.4 C 8.09 g/m*3 12.4 C 0 km/h
967 14-01-2011 01:26:01 12.5 C 8.14 g/m*3 12.5 C 0 km/h
968 14-01-2011 01:38:02 12.6 C 8.08 g/m*3 12.6 C 0 km/h
969 14-01-2011 01:50:01 12.5 C 8.03 g/m*3 12.5 C 0 km/h
970 14-01-2011 02:02:02 12.4 C 7.98 g/m*3 12.4 C 0 km/h
971 14-01-2011 02:14:02 12.3 C 7.93 g/m*3 12.3 C 0 km/h
972 14-01-2011 02:26:01 12.3 C 7.93 g/m*3 12.3 C 0 km/h
973 14-01-2011 02:38:01 12.3 C 7.93 g/m*3 12.3 C 0 km/h
974 14-01-2011 02:50:01 12.4 C 7.98 g/m*3 12.4 C 0 km/h
975 14-01-2011 03:02:01 12.2 C 7.88 g/m*3 12.2 C 0 km/h
Sensor: Nr:Datum:Temp:Abs-Feuchte:Windchill:Wind:
Aussen-T/F 976 14-01-2011 03:14:01 12.4 C 7.98 g/m*3 12.4 C 0 km/h
977 14-01-2011 03:26:02 12.2 C 7.77 g/m*3 12.2 C 0 km/h
978 14-01-2011 03:38:01 12.2 C 7.77 g/m*3 12.2 C 0 km/h
979 14-01-2011 03:50:01 12.2 C 7.77 g/m*3 12.2 C 0 km/h
980 14-01-2011 04:02:02 12.2 C 7.77 g/m*3 12.2 C 0 km/h
981 14-01-2011 04:14:02 12.2 C 7.88 g/m*3 12.2 C 0 km/h
982 14-01-2011 04:26:01 12.4 C 7.87 g/m*3 12.4 C 0 km/h
983 14-01-2011 04:38:01 12.2 C 7.77 g/m*3 12.2 C 0 km/h
984 14-01-2011 04:50:01 12.2 C 7.77 g/m*3 12.2 C 0 km/h
985 14-01-2011 05:02:01 12.1 C 7.83 g/m*3 12.1 C 0 km/h
986 14-01-2011 05:14:01 12.1 C 7.83 g/m*3 12.1 C 0 km/h
987 14-01-2011 05:26:01 12.3 C 7.82 g/m*3 12.3 C 0 km/h
988 14-01-2011 05:38:01 12.5 C 7.81 g/m*3 12.5 C 0 km/h
989 14-01-2011 05:50:01 12.3 C 7.71 g/m*3 12.3 C 0 km/h
990 14-01-2011 06:02:01 12.4 C 7.65 g/m*3 12.4 C 0 km/h
991 14-01-2011 06:14:01 12.6 C 7.63 g/m*3 12.6 C 0 km/h
992 14-01-2011 06:26:02 12.5 C 7.59 g/m*3 12.5 C 0 km/h
993 14-01-2011 06:38:01 12.7 C 7.57 g/m*3 12.7 C 0 km/h
994 14-01-2011 06:50:02 12.6 C 7.63 g/m*3 12.6 C 0 km/h
995 14-01-2011 07:02:01 12.3 C 7.6 g/m*3 12.3 C 0 km/h
996 14-01-2011 07:14:01 12.3 C 7.49 g/m*3 12.3 C 0 km/h
997 14-01-2011 07:26:02 12.4 C 7.43 g/m*3 12.4 C 0 km/h
998 14-01-2011 07:38:01 12.2 C 7.12 g/m*3 12.2 C 0 km/h
999 14-01-2011 07:50:01 12.3 C 7.17 g/m*3 12.3 C 0 km/h
1000 14-01-2011 08:02:01 12.1 C 7.08 g/m*3 12.1 C 0 km/h
Sensor: Nr:Datum:Temp:Abs-Feuchte:Windchill:Wind:
Aussen-T/F 1001 14-01-2011 08:14:01 12.2 C 7.01 g/m*3 12.2 C 0 km/h
1002 14-01-2011 08:26:02 11.7 C 7.01 g/m*3 11.7 C 0 km/h
1003 14-01-2011 08:38:01 11.2 C 6.89 g/m*3 11.2 C 0 km/h
1004 14-01-2011 08:50:02 11.1 C 6.95 g/m*3 11.1 C 0 km/h
1005 14-01-2011 09:02:01 11.2 C 6.99 g/m*3 11.2 C 0 km/h
1006 14-01-2011 09:14:01 11.4 C 6.77 g/m*3 11.4 C 0 km/h
1007 14-01-2011 09:26:01 11.6 C 6.86 g/m*3 11.6 C 0 km/h
1008 14-01-2011 09:38:01 11.6 C 6.76 g/m*3 11.6 C 0 km/h
1009 14-01-2011 09:50:01 11.5 C 6.82 g/m*3 11.5 C 0 km/h
1010 14-01-2011 10:02:01 11.8 C 6.84 g/m*3 11.8 C 0 km/h
1011 14-01-2011 10:14:01 11.9 C 6.78 g/m*3 11.9 C 0 km/h
1012 14-01-2011 10:26:01 11.9 C 6.78 g/m*3 11.9 C 0 km/h
1013 14-01-2011 10:38:02 11.3 C 6.53 g/m*3 11.3 C 0 km/h
1014 14-01-2011 10:50:01 11.8 C 6.63 g/m*3 11.8 C 0 km/h
1015 14-01-2011 11:02:02 12 C 6.61 g/m*3 12 C 0 km/h
1016 14-01-2011 11:14:02 11.9 C 6.67 g/m*3 11.9 C 0 km/h
1017 14-01-2011 11:26:01 12 C 6.61 g/m*3 12 C 0 km/h
1018 14-01-2011 11:38:02 12 C 6.61 g/m*3 12 C 0 km/h
1019 14-01-2011 11:50:01 12.2 C 6.58 g/m*3 12.2 C 0 km/h
1020 14-01-2011 12:02:01 12 C 6.5 g/m*3 12 C 0 km/h
1021 14-01-2011 12:14:02 12.2 C 6.58 g/m*3 12.2 C 0 km/h
1022 14-01-2011 12:26:01 12.3 C 6.52 g/m*3 12.3 C 0 km/h
1023 14-01-2011 12:38:01 12.2 C 6.58 g/m*3 12.2 C 0 km/h
1024 14-01-2011 12:50:01 12 C 6.5 g/m*3 12 C 0 km/h
1025 14-01-2011 13:02:01 12 C 6.61 g/m*3 12 C 0 km/h
Sensor: Nr:Datum:Temp:Abs-Feuchte:Windchill:Wind:
Aussen-T/F 1026 14-01-2011 13:14:01 12 C 6.71 g/m*3 12 C 0 km/h
1027 14-01-2011 13:26:02 12 C 6.61 g/m*3 12 C 0 km/h
1028 14-01-2011 13:38:01 12 C 6.61 g/m*3 12 C 0 km/h
1029 14-01-2011 13:50:02 12 C 6.61 g/m*3 12 C 0 km/h
1030 14-01-2011 14:02:01 11.8 C 6.74 g/m*3 11.8 C 0 km/h
1031 14-01-2011 14:14:01 11.7 C 6.8 g/m*3 11.7 C 0 km/h
1032 14-01-2011 14:26:02 11.6 C 6.86 g/m*3 11.6 C 0 km/h
1033 14-01-2011 14:38:01 11.5 C 6.82 g/m*3 11.5 C 0 km/h
1034 14-01-2011 14:50:02 11.6 C 6.86 g/m*3 11.6 C 0 km/h
1035 14-01-2011 15:02:01 11.8 C 6.74 g/m*3 11.8 C 0 km/h
1036 14-01-2011 15:14:01 12 C 6.61 g/m*3 12 C 0 km/h
1037 14-01-2011 15:26:01 12.2 C 6.47 g/m*3 12.2 C 0 km/h
1038 14-01-2011 15:38:02 12.4 C 6.45 g/m*3 12.4 C 0 km/h
1039 14-01-2011 15:50:01 12.2 C 6.47 g/m*3 12.2 C 0 km/h
1040 14-01-2011 16:02:02 12.2 C 6.37 g/m*3 12.2 C 0 km/h
1041 14-01-2011 16:14:02 12.1 C 6.43 g/m*3 12.1 C 0 km/h
1042 14-01-2011 16:26:01 12 C 6.39 g/m*3 12 C 0 km/h
1043 14-01-2011 16:38:01 11.9 C 6.46 g/m*3 11.9 C 0 km/h
1044 14-01-2011 16:50:01 11.6 C 6.34 g/m*3 11.6 C 0 km/h
1045 14-01-2011 17:02:01 11.6 C 6.34 g/m*3 11.6 C 0 km/h
1046 14-01-2011 17:14:01 11.6 C 6.44 g/m*3 11.6 C 0 km/h
1047 14-01-2011 17:26:01 11.5 C 6.3 g/m*3 11.5 C 0 km/h
1048 14-01-2011 17:38:01 11.5 C 6.3 g/m*3 11.5 C 0 km/h
1049 14-01-2011 17:50:01 11.4 C 6.26 g/m*3 11.4 C 0 km/h
1050 14-01-2011 18:02:01 11.2 C 6.28 g/m*3 11.2 C 0 km/h
Sensor: Nr:Datum:Temp:Abs-Feuchte:Windchill:Wind:
Aussen-T/F 1051 14-01-2011 18:14:01 11 C 6.31 g/m*3 11 C 0 km/h
1052 14-01-2011 18:26:02 11.3 C 6.32 g/m*3 11.3 C 0 km/h
1053 14-01-2011 18:38:01 10.8 C 6.33 g/m*3 10.8 C 0 km/h
1054 14-01-2011 18:50:02 10.9 C 6.37 g/m*3 10.9 C 0 km/h
1055 14-01-2011 19:02:01 10.8 C 6.33 g/m*3 10.8 C 0 km/h
1056 14-01-2011 19:14:01 10.7 C 6.29 g/m*3 10.7 C 0 km/h
1057 14-01-2011 19:26:01 11 C 6.21 g/m*3 11 C 0 km/h
1058 14-01-2011 19:38:01 11.3 C 6.22 g/m*3 11.3 C 0 km/h
1059 14-01-2011 19:50:01 11.9 C 6.14 g/m*3 11.9 C 0 km/h
1060 14-01-2011 20:02:01 11.9 C 6.04 g/m*3 11.9 C 0 km/h
1061 14-01-2011 20:14:01 11.8 C 6.1 g/m*3 11.8 C 0 km/h
1062 14-01-2011 20:26:01 11.8 C 6.1 g/m*3 11.8 C 0 km/h
1063 14-01-2011 20:38:02 11.5 C 6.09 g/m*3 11.5 C 0 km/h
1064 14-01-2011 20:50:01 11.4 C 6.06 g/m*3 11.4 C 0 km/h
1065 14-01-2011 21:02:02 11.4 C 6.06 g/m*3 11.4 C 0 km/h
1066 14-01-2011 21:14:02 11.4 C 5.95 g/m*3 11.4 C 0 km/h
1067 14-01-2011 21:26:01 11.4 C 6.06 g/m*3 11.4 C 0 km/h
1068 14-01-2011 21:38:01 11.4 C 5.95 g/m*3 11.4 C 0 km/h
1069 14-01-2011 21:50:01 11.4 C 6.06 g/m*3 11.4 C 0 km/h
1070 14-01-2011 22:04:03 11.2 C 6.08 g/m*3 11.2 C 0 km/h
1071 14-01-2011 22:16:03 11.1 C 6.14 g/m*3 11.1 C 0 km/h
1072 14-01-2011 22:28:03 11.1 C 6.25 g/m*3 11.1 C 0 km/h
1073 14-01-2011 22:40:03 10.6 C 6.34 g/m*3 10.6 C 0 km/h
1074 14-01-2011 22:52:03 10.1 C 6.43 g/m*3 10.1 C 0 km/h
1075 14-01-2011 23:04:03 10 C 6.58 g/m*3 10 C 0 km/h
Sensor: Nr:Datum:Temp:Abs-Feuchte:Windchill:Wind:
Aussen-T/F 1076 14-01-2011 23:16:03 9.5 C 6.74 g/m*3 9.5 C 0 km/h
1077 14-01-2011 23:28:03 9.1 C 6.92 g/m*3 9.1 C 0 km/h
1078 14-01-2011 23:40:03 9.1 C 6.92 g/m*3 9.1 C 0 km/h
1079 14-01-2011 23:52:03 8.5 C 6.66 g/m*3 8.5 C 0 km/h
1080 15-01-2011 00:04:03 8.3 C 6.74 g/m*3 8.3 C 0 km/h
1081 15-01-2011 00:16:03 8 C 6.7 g/m*3 8 C 0 km/h
1082 15-01-2011 00:28:03 8.5 C 6.74 g/m*3 8.5 C 0 km/h
1083 15-01-2011 00:40:03 8.1 C 6.49 g/m*3 8.1 C 0 km/h
1084 15-01-2011 00:52:03 8.2 C 6.53 g/m*3 8.2 C 0 km/h
1085 15-01-2011 01:04:03 8.1 C 6.49 g/m*3 8.1 C 0 km/h
1086 15-01-2011 01:16:03 8.3 C 6.49 g/m*3 8.3 C 0 km/h
1087 15-01-2011 01:28:03 8.5 C 6.32 g/m*3 8.5 C 0 km/h
1088 15-01-2011 01:40:03 8.2 C 6.36 g/m*3 8.2 C 0 km/h
1089 15-01-2011 01:52:03 8 C 6.37 g/m*3 8 C 0 km/h
1090 15-01-2011 02:04:04 8.4 C 6.45 g/m*3 8.4 C 0 km/h
1091 15-01-2011 02:16:04 8.3 C 6.41 g/m*3 8.3 C 0 km/h
1092 15-01-2011 02:28:04 8.1 C 6.32 g/m*3 8.1 C 0 km/h
1093 15-01-2011 02:40:04 7.6 C 6.36 g/m*3 7.6 C 0 km/h
1094 15-01-2011 02:52:04 7.8 C 6.61 g/m*3 7.8 C 0 km/h
1095 15-01-2011 03:04:04 8 C 6.45 g/m*3 8 C 0 km/h
1096 15-01-2011 03:16:04 8.1 C 6.41 g/m*3 8.1 C 0 km/h
1097 15-01-2011 03:28:04 8.4 C 6.62 g/m*3 8.4 C 0 km/h
1098 15-01-2011 03:40:04 8.1 C 6.41 g/m*3 8.1 C 0 km/h
1099 15-01-2011 03:52:04 8 C 6.45 g/m*3 8 C 0 km/h
1100 15-01-2011 04:04:04 7.8 C 6.45 g/m*3 7.8 C 0 km/h
Sensor: Nr:Datum:Temp:Abs-Feuchte:Windchill:Wind:
Aussen-T/F 1101 15-01-2011 04:16:04 8 C 6.53 g/m*3 8 C 0 km/h
1102 15-01-2011 04:28:04 8.2 C 6.36 g/m*3 8.2 C 0 km/h
1103 15-01-2011 04:40:04 8.7 C 6.4 g/m*3 8.7 C 0 km/h
1104 15-01-2011 04:52:04 8.4 C 6.28 g/m*3 8.4 C 0 km/h
1105 15-01-2011 05:04:04 8.3 C 6.15 g/m*3 8.3 C 0 km/h
1106 15-01-2011 05:16:04 8.1 C 6.07 g/m*3 8.1 C 0 km/h
1107 15-01-2011 05:28:04 7.7 C 6.24 g/m*3 7.7 C 0 km/h
1108 15-01-2011 05:40:04 8 C 6.12 g/m*3 8 C 0 km/h
1109 15-01-2011 05:52:04 7.7 C 6.08 g/m*3 7.7 C 0 km/h
1110 15-01-2011 06:04:05 7.5 C 6.24 g/m*3 7.5 C 0 km/h
1111 15-01-2011 06:16:05 6.9 C 6.24 g/m*3 6.9 C 0 km/h
1112 15-01-2011 06:28:05 7.3 C 6.24 g/m*3 7.3 C 0 km/h
1113 15-01-2011 06:40:05 7.6 C 6.2 g/m*3 7.6 C 0 km/h
1114 15-01-2011 06:52:05 7.9 C 6.16 g/m*3 7.9 C 0 km/h
1115 15-01-2011 07:04:05 7.1 C 6.01 g/m*3 7.1 C 0 km/h
1116 15-01-2011 07:16:05 7.3 C 6.24 g/m*3 7.3 C 0 km/h
1117 15-01-2011 07:28:05 7 C 6.2 g/m*3 7 C 0 km/h
1118 15-01-2011 07:40:05 7 C 6.12 g/m*3 7 C 0 km/h
1119 15-01-2011 07:52:05 7 C 6.12 g/m*3 7 C 0 km/h
1120 15-01-2011 08:04:02 7 C 6.12 g/m*3 7 C 0 km/h
1121 15-01-2011 08:16:03 7.1 C 6.08 g/m*3 7.1 C 0 km/h
1122 15-01-2011 08:28:03 8 C 6.28 g/m*3 8 C 0 km/h
1123 15-01-2011 08:40:02 8 C 6.04 g/m*3 8 C 0 km/h
1124 15-01-2011 08:52:03 8.3 C 6.15 g/m*3 8.3 C 0 km/h
1125 15-01-2011 09:04:02 8.2 C 5.95 g/m*3 8.2 C 0 km/h
Sensor: Nr:Datum:Temp:Abs-Feuchte:Windchill:Wind:
Aussen-T/F 1126 15-01-2011 09:16:02 7.9 C 5.91 g/m*3 7.9 C 0 km/h
1127 15-01-2011 09:28:02 8.2 C 6.03 g/m*3 8.2 C 0 km/h
1128 15-01-2011 09:40:02 8.5 C 5.98 g/m*3 8.5 C 0 km/h
1129 15-01-2011 09:52:02 8.7 C 6.05 g/m*3 8.7 C 0 km/h
1130 15-01-2011 10:04:01 9.1 C 5.94 g/m*3 9.1 C 0 km/h
1131 15-01-2011 10:16:02 8.9 C 5.96 g/m*3 8.9 C 0 km/h
1132 15-01-2011 10:28:02 9 C 5.91 g/m*3 9 C 0 km/h
1133 15-01-2011 10:40:02 9.1 C 5.86 g/m*3 9.1 C 0 km/h
1134 15-01-2011 10:52:02 9.2 C 5.89 g/m*3 9.2 C 0 km/h
1135 15-01-2011 11:04:02 9.4 C 5.97 g/m*3 9.4 C 0 km/h
1136 15-01-2011 11:16:02 9.5 C 6.01 g/m*3 9.5 C 0 km/h
1137 15-01-2011 11:28:02 10.1 C 5.96 g/m*3 10.1 C 0 km/h
1138 15-01-2011 11:40:02 10.1 C 5.77 g/m*3 10.1 C 0 km/h
1139 15-01-2011 11:52:02 10.2 C 5.71 g/m*3 10.2 C 0 km/h
1140 15-01-2011 12:04:02 10.2 C 5.8 g/m*3 10.2 C 0 km/h
1141 15-01-2011 12:16:03 10.2 C 5.71 g/m*3 10.2 C 0 km/h
1142 15-01-2011 12:28:03 10.3 C 5.75 g/m*3 10.3 C 0 km/h
1143 15-01-2011 12:40:02 10.2 C 5.71 g/m*3 10.2 C 0 km/h
1144 15-01-2011 12:52:01 10.1 C 5.67 g/m*3 10.1 C 0 km/h
1145 15-01-2011 13:04:01 10.1 C 5.58 g/m*3 10.1 C 0 km/h
1146 15-01-2011 13:16:02 10 C 5.64 g/m*3 10 C 0 km/h
1147 15-01-2011 13:28:02 10 C 5.54 g/m*3 10 C 0 km/h
1148 15-01-2011 13:40:01 10 C 5.54 g/m*3 10 C 0 km/h
1149 15-01-2011 13:52:01 10.1 C 5.58 g/m*3 10.1 C 0 km/h
1150 15-01-2011 14:04:01 10.2 C 5.61 g/m*3 10.2 C 0 km/h
Sensor: Nr:Datum:Temp:Abs-Feuchte:Windchill:Wind:
Aussen-T/F 1151 15-01-2011 14:16:02 10 C 5.54 g/m*3 10 C 0 km/h
1152 15-01-2011 14:28:02 10 C 5.54 g/m*3 10 C 0 km/h
1153 15-01-2011 14:40:01 10 C 5.54 g/m*3 10 C 0 km/h
1154 15-01-2011 14:52:01 10 C 5.45 g/m*3 10 C 0 km/h
1155 15-01-2011 15:04:01 9.9 C 5.42 g/m*3 9.9 C 0 km/h
1156 15-01-2011 15:16:02 9.8 C 5.57 g/m*3 9.8 C 0 km/h
1157 15-01-2011 15:28:02 9.6 C 5.5 g/m*3 9.6 C 0 km/h
1158 15-01-2011 15:40:01 9.7 C 5.53 g/m*3 9.7 C 0 km/h
1159 15-01-2011 15:52:02 9.1 C 5.59 g/m*3 9.1 C 0 km/h
1160 15-01-2011 16:04:02 8.8 C 5.83 g/m*3 8.8 C 0 km/h
1161 15-01-2011 16:16:03 8.7 C 5.71 g/m*3 8.7 C 0 km/h
1162 15-01-2011 16:28:03 8.9 C 5.69 g/m*3 8.9 C 0 km/h
1163 15-01-2011 16:40:02 8.9 C 5.69 g/m*3 8.9 C 0 km/h
1164 15-01-2011 16:52:02 9.2 C 5.63 g/m*3 9.2 C 0 km/h
1165 15-01-2011 17:04:01 8.7 C 5.79 g/m*3 8.7 C 0 km/h
1166 15-01-2011 17:16:01 9.1 C 5.59 g/m*3 9.1 C 0 km/h
1167 15-01-2011 17:28:01 9.2 C 5.54 g/m*3 9.2 C 0 km/h
1168 15-01-2011 17:40:02 9 C 5.64 g/m*3 9 C 0 km/h
1169 15-01-2011 17:52:03 9.1 C 5.68 g/m*3 9.1 C 0 km/h
1170 15-01-2011 18:04:03 9.2 C 5.71 g/m*3 9.2 C 0 km/h
1171 15-01-2011 18:16:01 9.1 C 5.68 g/m*3 9.1 C 0 km/h
1172 15-01-2011 18:28:01 9 C 5.82 g/m*3 9 C 0 km/h
1173 15-01-2011 18:40:02 9 C 5.82 g/m*3 9 C 0 km/h
1174 15-01-2011 18:52:02 8.6 C 5.84 g/m*3 8.6 C 0 km/h
1175 15-01-2011 19:04:02 9.1 C 5.77 g/m*3 9.1 C 0 km/h
Sensor: Nr:Datum:Temp:Abs-Feuchte:Windchill:Wind:
Aussen-T/F 1176 15-01-2011 19:16:02 9.3 C 5.66 g/m*3 9.3 C 0 km/h
1177 15-01-2011 19:28:02 9.1 C 5.59 g/m*3 9.1 C 0 km/h
1178 15-01-2011 19:40:02 9.3 C 5.75 g/m*3 9.3 C 0 km/h
1179 15-01-2011 19:52:01 9.1 C 5.68 g/m*3 9.1 C 0 km/h
1180 15-01-2011 20:04:01 9.4 C 5.7 g/m*3 9.4 C 0 km/h
1181 15-01-2011 20:16:02 9.1 C 5.59 g/m*3 9.1 C 0 km/h
1182 15-01-2011 20:28:02 8.6 C 5.67 g/m*3 8.6 C 0 km/h
1183 15-01-2011 20:40:01 8.9 C 5.69 g/m*3 8.9 C 0 km/h
1184 15-01-2011 20:52:01 8.6 C 5.76 g/m*3 8.6 C 0 km/h
1185 15-01-2011 21:04:01 8.2 C 5.53 g/m*3 8.2 C 0 km/h
1186 15-01-2011 21:16:02 8.1 C 5.57 g/m*3 8.1 C 0 km/h
1187 15-01-2011 21:28:02 8 C 5.54 g/m*3 8 C 0 km/h
1188 15-01-2011 21:40:01 7.8 C 5.71 g/m*3 7.8 C 0 km/h
1189 15-01-2011 21:52:01 8.1 C 5.74 g/m*3 8.1 C 0 km/h
1190 15-01-2011 22:04:01 8.3 C 5.82 g/m*3 8.3 C 0 km/h
1191 15-01-2011 22:16:02 8.5 C 5.98 g/m*3 8.5 C 0 km/h
1192 15-01-2011 22:28:02 8.9 C 5.96 g/m*3 8.9 C 0 km/h
1193 15-01-2011 22:41:03 8.6 C 5.84 g/m*3 8.6 C 0 km/h
1194 15-01-2011 22:53:03 8.7 C 5.88 g/m*3 8.7 C 0 km/h
1195 15-01-2011 23:05:03 8.5 C 5.89 g/m*3 8.5 C 0 km/h
1196 15-01-2011 23:17:03 8.2 C 5.86 g/m*3 8.2 C 0 km/h
1197 15-01-2011 23:29:03 8.7 C 5.88 g/m*3 8.7 C 0 km/h
1198 15-01-2011 23:41:03 8.8 C 5.92 g/m*3 8.8 C 0 km/h
1199 15-01-2011 23:53:03 8.9 C 5.87 g/m*3 8.9 C 0 km/h
1200 16-01-2011 00:05:03 8.7 C 5.97 g/m*3 8.7 C 0 km/h
Sensor: Nr:Datum:Temp:Abs-Feuchte:Windchill:Wind:
Aussen-T/F 1201 16-01-2011 00:17:03 8.8 C 5.92 g/m*3 8.8 C 0 km/h
1202 16-01-2011 00:29:03 9 C 5.82 g/m*3 9 C 0 km/h
1203 16-01-2011 00:41:03 9 C 5.73 g/m*3 9 C 0 km/h
1204 16-01-2011 00:53:04 9 C 5.73 g/m*3 9 C 0 km/h
1205 16-01-2011 01:05:04 8.5 C 5.64 g/m*3 8.5 C 0 km/h
1206 16-01-2011 01:17:04 8.6 C 5.76 g/m*3 8.6 C 0 km/h
1207 16-01-2011 01:29:04 8 C 5.7 g/m*3 8 C 0 km/h
1208 16-01-2011 01:41:04 8 C 5.7 g/m*3 8 C 0 km/h
1209 16-01-2011 01:53:04 8.1 C 5.66 g/m*3 8.1 C 0 km/h
1210 16-01-2011 02:05:04 8.1 C 5.66 g/m*3 8.1 C 0 km/h
1211 16-01-2011 02:17:04 7.8 C 5.71 g/m*3 7.8 C 0 km/h
1212 16-01-2011 02:29:04 7.8 C 5.79 g/m*3 7.8 C 0 km/h
1213 16-01-2011 02:41:04 7.8 C 5.88 g/m*3 7.8 C 0 km/h
1214 16-01-2011 02:53:04 8.3 C 5.82 g/m*3 8.3 C 0 km/h
1215 16-01-2011 03:05:04 8.4 C 5.77 g/m*3 8.4 C 0 km/h
1216 16-01-2011 03:17:04 8.3 C 5.65 g/m*3 8.3 C 0 km/h
1217 16-01-2011 03:29:04 8.2 C 5.69 g/m*3 8.2 C 0 km/h
1218 16-01-2011 03:41:04 7.8 C 5.71 g/m*3 7.8 C 0 km/h
1219 16-01-2011 03:53:04 8 C 5.7 g/m*3 8 C 0 km/h
1220 16-01-2011 04:05:04 7.9 C 5.75 g/m*3 7.9 C 0 km/h
1221 16-01-2011 04:17:04 8.2 C 5.78 g/m*3 8.2 C 0 km/h
1222 16-01-2011 04:29:04 8.5 C 5.72 g/m*3 8.5 C 0 km/h
1223 16-01-2011 04:41:04 8.4 C 5.77 g/m*3 8.4 C 0 km/h
1224 16-01-2011 04:53:05 8.1 C 5.74 g/m*3 8.1 C 0 km/h
1225 16-01-2011 05:05:05 7.9 C 5.83 g/m*3 7.9 C 0 km/h
Sensor: Nr:Datum:Temp:Abs-Feuchte:Windchill:Wind:
Aussen-T/F 1226 16-01-2011 05:17:05 7.3 C 5.85 g/m*3 7.3 C 0 km/h
1227 16-01-2011 05:29:05 6.8 C 5.97 g/m*3 6.8 C 0 km/h
1228 16-01-2011 05:41:05 7 C 6.12 g/m*3 7 C 0 km/h
1229 16-01-2011 05:53:05 6.8 C 6.12 g/m*3 6.8 C 0 km/h
1230 16-01-2011 06:05:05 7 C 6.2 g/m*3 7 C 0 km/h
1231 16-01-2011 06:17:05 7.1 C 6.16 g/m*3 7.1 C 0 km/h
1232 16-01-2011 06:29:05 7.5 C 6.16 g/m*3 7.5 C 0 km/h
1233 16-01-2011 06:41:05 7 C 5.89 g/m*3 7 C 0 km/h
1234 16-01-2011 06:53:05 6.7 C 6 g/m*3 6.7 C 0 km/h
1235 16-01-2011 07:05:05 7.5 C 6.16 g/m*3 7.5 C 0 km/h
1236 16-01-2011 07:17:05 7.8 C 6.12 g/m*3 7.8 C 0 km/h
1237 16-01-2011 07:29:05 7.9 C 6.08 g/m*3 7.9 C 0 km/h
1238 16-01-2011 07:41:05 7.8 C 6.04 g/m*3 7.8 C 0 km/h
1239 16-01-2011 07:53:05 8.4 C 5.94 g/m*3 8.4 C 0 km/h
1240 16-01-2011 08:05:05 8.2 C 5.86 g/m*3 8.2 C 0 km/h
1241 16-01-2011 08:17:05 8.3 C 5.9 g/m*3 8.3 C 0 km/h
1242 16-01-2011 08:29:05 8.3 C 5.82 g/m*3 8.3 C 0 km/h
1243 16-01-2011 08:41:05 8.1 C 5.82 g/m*3 8.1 C 0 km/h
1244 16-01-2011 08:53:05 8.2 C 5.95 g/m*3 8.2 C 0 km/h
1245 16-01-2011 09:05:02 8.3 C 5.98 g/m*3 8.3 C 0 km/h
1246 16-01-2011 09:17:02 8 C 5.87 g/m*3 8 C 0 km/h
1247 16-01-2011 09:29:02 8 C 5.87 g/m*3 8 C 0 km/h
1248 16-01-2011 09:41:02 8 C 5.87 g/m*3 8 C 0 km/h
1249 16-01-2011 09:53:01 7.9 C 5.91 g/m*3 7.9 C 0 km/h
1250 16-01-2011 10:05:02 7.9 C 5.91 g/m*3 7.9 C 0 km/h
Sensor: Nr:Datum:Temp:Abs-Feuchte:Windchill:Wind:
Aussen-T/F 1251 16-01-2011 10:17:01 7.9 C 5.91 g/m*3 7.9 C 0 km/h
1252 16-01-2011 10:29:01 7.9 C 5.91 g/m*3 7.9 C 0 km/h
1253 16-01-2011 10:41:01 8 C 5.95 g/m*3 8 C 0 km/h
1254 16-01-2011 10:53:01 8.2 C 5.86 g/m*3 8.2 C 0 km/h
1255 16-01-2011 11:05:02 8.1 C 5.91 g/m*3 8.1 C 0 km/h
1256 16-01-2011 11:17:01 8.1 C 5.91 g/m*3 8.1 C 0 km/h
1257 16-01-2011 11:29:01 8.3 C 5.98 g/m*3 8.3 C 0 km/h
1258 16-01-2011 11:41:02 8.6 C 6.1 g/m*3 8.6 C 0 km/h
1259 16-01-2011 11:53:01 8.7 C 6.05 g/m*3 8.7 C 0 km/h
1260 16-01-2011 12:05:02 8.6 C 6.1 g/m*3 8.6 C 0 km/h
1261 16-01-2011 12:17:01 8.6 C 6.19 g/m*3 8.6 C 0 km/h
1262 16-01-2011 12:29:01 8.6 C 6.19 g/m*3 8.6 C 0 km/h
1263 16-01-2011 12:41:02 8.7 C 6.14 g/m*3 8.7 C 0 km/h
1264 16-01-2011 12:53:01 8.7 C 6.14 g/m*3 8.7 C 0 km/h
1265 16-01-2011 13:05:02 8.9 C 6.22 g/m*3 8.9 C 0 km/h
1266 16-01-2011 13:17:02 8.9 C 6.22 g/m*3 8.9 C 0 km/h
1267 16-01-2011 13:29:02 8.8 C 6.18 g/m*3 8.8 C 0 km/h
1268 16-01-2011 13:41:01 8.7 C 6.14 g/m*3 8.7 C 0 km/h
1269 16-01-2011 13:53:02 8.8 C 6.18 g/m*3 8.8 C 0 km/h
1270 16-01-2011 14:05:01 8.6 C 6.1 g/m*3 8.6 C 0 km/h
1271 16-01-2011 14:17:02 7.8 C 6.04 g/m*3 7.8 C 0 km/h
1272 16-01-2011 14:29:02 7.5 C 6.24 g/m*3 7.5 C 0 km/h
1273 16-01-2011 14:41:01 8.7 C 6.57 g/m*3 8.7 C 0 km/h
1274 16-01-2011 14:53:02 9.7 C 6.36 g/m*3 9.7 C 0 km/h
1275 16-01-2011 15:05:01 9.9 C 6.26 g/m*3 9.9 C 0 km/h
Sensor: Nr:Datum:Temp:Abs-Feuchte:Windchill:Wind:
Aussen-T/F 1276 16-01-2011 15:17:02 10 C 6.11 g/m*3 10 C 0 km/h
1277 16-01-2011 15:29:02 10 C 6.11 g/m*3 10 C 0 km/h
1278 16-01-2011 15:41:01 9.9 C 6.26 g/m*3 9.9 C 0 km/h
1279 16-01-2011 15:53:02 9.8 C 6.4 g/m*3 9.8 C 0 km/h
1280 16-01-2011 16:05:02 9.3 C 6.38 g/m*3 9.3 C 0 km/h
1281 16-01-2011 16:17:02 8.7 C 6.4 g/m*3 8.7 C 0 km/h
1282 16-01-2011 16:29:02 8 C 6.28 g/m*3 8 C 0 km/h
1283 16-01-2011 16:41:02 7.4 C 6.36 g/m*3 7.4 C 0 km/h
1284 16-01-2011 16:53:02 6.8 C 6.27 g/m*3 6.8 C 0 km/h
1285 16-01-2011 17:05:01 6.3 C 6.14 g/m*3 6.3 C 0 km/h
1286 16-01-2011 17:17:02 6.2 C 6.18 g/m*3 6.2 C 0 km/h
1287 16-01-2011 17:29:02 6 C 6.17 g/m*3 6 C 0 km/h
1288 16-01-2011 17:41:02 5.6 C 6.08 g/m*3 5.6 C 0 km/h
1289 16-01-2011 17:53:02 5.5 C 6.11 g/m*3 5.5 C 0 km/h
1290 16-01-2011 18:05:03 5.1 C 5.95 g/m*3 5.1 C 0 km/h
1291 16-01-2011 18:17:02 5 C 5.91 g/m*3 5 C 0 km/h
1292 16-01-2011 18:29:02 4.8 C 5.9 g/m*3 4.8 C 0 km/h
1293 16-01-2011 18:41:02 4.7 C 5.93 g/m*3 4.7 C 0 km/h
1294 16-01-2011 18:53:02 4.6 C 5.89 g/m*3 4.6 C 0 km/h
1295 16-01-2011 19:05:01 4.5 C 5.85 g/m*3 4.5 C 0 km/h
1296 16-01-2011 19:17:02 4.4 C 5.81 g/m*3 4.4 C 0 km/h
1297 16-01-2011 19:29:03 4.4 C 5.81 g/m*3 4.4 C 0 km/h
1298 16-01-2011 19:41:01 3.9 C 5.68 g/m*3 3.9 C 0 km/h
1299 16-01-2011 19:53:02 3.9 C 5.68 g/m*3 3.9 C 0 km/h
1300 16-01-2011 20:05:02 3.4 C 5.5 g/m*3 3.4 C 0 km/h
Sensor: Nr:Datum:Temp:Abs-Feuchte:Windchill:Wind:
Aussen-T/F 1301 16-01-2011 20:17:02 3.7 C 5.61 g/m*3 3.7 C 0 km/h
1302 16-01-2011 20:29:02 3.5 C 5.53 g/m*3 3.5 C 0 km/h
1303 16-01-2011 20:41:03 2.9 C 5.37 g/m*3 2.9 C 0 km/h
1304 16-01-2011 20:53:02 2.8 C 5.34 g/m*3 2.8 C 0 km/h
1305 16-01-2011 21:05:01 2.7 C 5.3 g/m*3 2.7 C 0 km/h
1306 16-01-2011 21:17:02 2.2 C 5.13 g/m*3 2.2 C 0 km/h
1307 16-01-2011 21:29:02 2.7 C 5.3 g/m*3 2.7 C 0 km/h
1308 16-01-2011 21:41:02 2.2 C 5.13 g/m*3 2.2 C 0 km/h
1309 16-01-2011 21:53:02 2.2 C 5.13 g/m*3 2.2 C 0 km/h
1310 16-01-2011 22:06:04 1.8 C 5.04 g/m*3 1.8 C 0 km/h
1311 16-01-2011 22:18:04 2.8 C 5.4 g/m*3 2.8 C 0 km/h
1312 16-01-2011 22:30:04 1.9 C 5.08 g/m*3 1.9 C 0 km/h
1313 16-01-2011 22:42:04 2.1 C 5.09 g/m*3 2.1 C 0 km/h
1314 16-01-2011 22:54:04 2.2 C 5.18 g/m*3 2.2 C 0 km/h
1315 16-01-2011 23:06:04 2.1 C 5.15 g/m*3 2.1 C 0 km/h
1316 16-01-2011 23:18:04 1.5 C 4.94 g/m*3 1.5 C 0 km/h
1317 16-01-2011 23:30:04 1.5 C 4.94 g/m*3 1.5 C 0 km/h
1318 16-01-2011 23:42:04 1.1 C 4.81 g/m*3 1.1 C 0 km/h
1319 16-01-2011 23:54:04 0.6 C 4.65 g/m*3 0.6 C 0 km/h
1320 17-01-2011 00:06:04 1.2 C 4.84 g/m*3 1.2 C 0 km/h
1321 17-01-2011 00:18:04 1.6 C 5.03 g/m*3 1.6 C 0 km/h
1322 17-01-2011 00:30:04 1.4 C 4.91 g/m*3 1.4 C 0 km/h
1323 17-01-2011 00:42:04 1.4 C 4.91 g/m*3 1.4 C 0 km/h
1324 17-01-2011 00:54:04 1.4 C 4.96 g/m*3 1.4 C 0 km/h
1325 17-01-2011 01:06:04 0.9 C 4.79 g/m*3 0.9 C 0 km/h
Sensor: Nr:Datum:Temp:Abs-Feuchte:Windchill:Wind:
Aussen-T/F 1326 17-01-2011 01:18:04 1.2 C 4.89 g/m*3 1.2 C 0 km/h
1327 17-01-2011 01:30:04 1.5 C 4.99 g/m*3 1.5 C 0 km/h
1328 17-01-2011 01:42:04 1.3 C 4.93 g/m*3 1.3 C 0 km/h
1329 17-01-2011 01:54:04 1 C 4.78 g/m*3 1 C 0 km/h
1330 17-01-2011 02:06:04 0.7 C 4.73 g/m*3 0.7 C 0 km/h
1331 17-01-2011 02:18:05 1.5 C 4.99 g/m*3 1.5 C 0 km/h
1332 17-01-2011 02:30:05 1.3 C 4.93 g/m*3 1.3 C 0 km/h
1333 17-01-2011 02:42:05 1 C 4.83 g/m*3 1 C 0 km/h
1334 17-01-2011 02:54:05 1.1 C 4.86 g/m*3 1.1 C 0 km/h
1335 17-01-2011 03:06:05 1.4 C 4.96 g/m*3 1.4 C 0 km/h
1336 17-01-2011 03:18:05 1.5 C 4.99 g/m*3 1.5 C 0 km/h
1337 17-01-2011 03:30:05 0.9 C 4.85 g/m*3 0.9 C 0 km/h
1338 17-01-2011 03:42:05 0.9 C 4.85 g/m*3 0.9 C 0 km/h
1339 17-01-2011 03:54:05 0.5 C 4.71 g/m*3 0.5 C 0 km/h
1340 17-01-2011 04:06:05 0.2 C 4.57 g/m*3 0.2 C 0 km/h
1341 17-01-2011 04:18:05 -0.1 C 4.47 g/m*3 -0.1 C 0 km/h
1342 17-01-2011 04:30:05 -0.3 C 4.41 g/m*3 -0.3 C 0 km/h
1343 17-01-2011 04:42:05 0.1 C 4.54 g/m*3 0.1 C 0 km/h
1344 17-01-2011 04:54:05 -0.1 C 4.47 g/m*3 -0.1 C 0 km/h
1345 17-01-2011 05:06:05 0.6 C 4.75 g/m*3 0.6 C 0 km/h
1346 17-01-2011 05:18:05 0.5 C 4.71 g/m*3 0.5 C 0 km/h
1347 17-01-2011 05:30:05 -0.2 C 4.44 g/m*3 -0.2 C 0 km/h
1348 17-01-2011 05:42:05 -0.5 C 4.35 g/m*3 -0.5 C 0 km/h
1349 17-01-2011 05:54:05 0 C 4.51 g/m*3 0 C 0 km/h
1350 17-01-2011 06:06:05 -0.3 C 4.41 g/m*3 -0.3 C 0 km/h
Sensor: Nr:Datum:Temp:Abs-Feuchte:Windchill:Wind:
Aussen-T/F 1351 17-01-2011 06:18:06 -0.3 C 4.41 g/m*3 -0.3 C 0 km/h
1352 17-01-2011 06:30:06 -0.6 C 4.32 g/m*3 -0.6 C 0 km/h
1353 17-01-2011 06:42:06 -1 C 4.2 g/m*3 -1 C 0 km/h
1354 17-01-2011 06:54:03 -0.9 C 4.23 g/m*3 -0.9 C 0 km/h
1355 17-01-2011 07:06:02 -0.7 C 4.29 g/m*3 -0.7 C 0 km/h
1356 17-01-2011 07:18:02 0.2 C 4.62 g/m*3 0.2 C 0 km/h
1357 17-01-2011 07:30:02 0 C 4.55 g/m*3 0 C 0 km/h
1358 17-01-2011 07:42:02 -0.5 C 4.35 g/m*3 -0.5 C 0 km/h
1359 17-01-2011 07:54:02 -1 C 4.2 g/m*3 -1 C 0 km/h
1360 17-01-2011 08:06:02 -1 C 4.2 g/m*3 -1 C 0 km/h
1361 17-01-2011 08:18:02 -1 C 4.2 g/m*3 -1 C 0 km/h
1362 17-01-2011 08:30:02 -1.1 C 4.17 g/m*3 -1.1 C 0 km/h
1363 17-01-2011 08:42:03 -0.2 C 4.49 g/m*3 -0.2 C 0 km/h
1364 17-01-2011 08:54:01 0 C 4.55 g/m*3 0 C 0 km/h
1365 17-01-2011 09:06:02 0.4 C 4.68 g/m*3 0.4 C 0 km/h
1366 17-01-2011 09:18:01 0.7 C 4.78 g/m*3 0.7 C 0 km/h
1367 17-01-2011 09:30:01 0.8 C 4.81 g/m*3 0.8 C 0 km/h
1368 17-01-2011 09:42:02 0.9 C 4.85 g/m*3 0.9 C 0 km/h
1369 17-01-2011 09:54:01 0.8 C 4.81 g/m*3 0.8 C 0 km/h
1370 17-01-2011 10:06:02 0.7 C 4.78 g/m*3 0.7 C 0 km/h
1371 17-01-2011 10:18:02 0.7 C 4.78 g/m*3 0.7 C 0 km/h
1372 17-01-2011 10:30:02 0.4 C 4.68 g/m*3 0.4 C 0 km/h
1373 17-01-2011 10:42:01 0.6 C 4.75 g/m*3 0.6 C 0 km/h
1374 17-01-2011 10:54:02 1 C 4.88 g/m*3 1 C 0 km/h
1375 17-01-2011 11:06:01 1 C 4.88 g/m*3 1 C 0 km/h
Sensor: Nr:Datum:Temp:Abs-Feuchte:Windchill:Wind:
Aussen-T/F 1376 17-01-2011 11:18:02 1 C 4.88 g/m*3 1 C 0 km/h
1377 17-01-2011 11:30:02 1.7 C 5.12 g/m*3 1.7 C 0 km/h
1378 17-01-2011 11:42:01 2.9 C 5.55 g/m*3 2.9 C 0 km/h
1379 17-01-2011 11:54:02 4.1 C 5.95 g/m*3 4.1 C 0 km/h
1380 17-01-2011 12:06:02 5 C 6.32 g/m*3 5 C 0 km/h
1381 17-01-2011 12:18:02 4.9 C 6.35 g/m*3 4.9 C 0 km/h
1382 17-01-2011 12:30:02 5.4 C 6.49 g/m*3 5.4 C 0 km/h
1383 17-01-2011 12:42:03 5.8 C 6.66 g/m*3 5.8 C 0 km/h
1384 17-01-2011 12:54:02 6 C 6.68 g/m*3 6 C 0 km/h
1385 17-01-2011 13:06:02 6.3 C 6.81 g/m*3 6.3 C 0 km/h
1386 17-01-2011 13:18:01 6.3 C 6.74 g/m*3 6.3 C 0 km/h
1387 17-01-2011 13:30:01 6 C 6.46 g/m*3 6 C 0 km/h
1388 17-01-2011 13:42:02 5.8 C 6.38 g/m*3 5.8 C 0 km/h
1389 17-01-2011 13:54:02 5.9 C 6.35 g/m*3 5.9 C 0 km/h
1390 17-01-2011 14:06:02 6 C 6.17 g/m*3 6 C 0 km/h
1391 17-01-2011 14:18:02 6.3 C 6.22 g/m*3 6.3 C 0 km/h
1392 17-01-2011 14:30:02 6.5 C 6.15 g/m*3 6.5 C 0 km/h
1393 17-01-2011 14:42:02 6.6 C 5.96 g/m*3 6.6 C 0 km/h
1394 17-01-2011 14:54:02 6.6 C 5.89 g/m*3 6.6 C 0 km/h
1395 17-01-2011 15:06:02 6.7 C 5.85 g/m*3 6.7 C 0 km/h
1396 17-01-2011 15:18:02 6.5 C 5.92 g/m*3 6.5 C 0 km/h
1397 17-01-2011 15:30:02 6.2 C 5.88 g/m*3 6.2 C 0 km/h
1398 17-01-2011 15:42:02 5.8 C 5.87 g/m*3 5.8 C 0 km/h
1399 17-01-2011 15:54:02 5.7 C 5.98 g/m*3 5.7 C 0 km/h
1400 17-01-2011 16:06:03 6.2 C 6.1 g/m*3 6.2 C 0 km/h
Sensor: Nr:Datum:Temp:Abs-Feuchte:Windchill:Wind:
Aussen-T/F 1401 17-01-2011 16:18:02 5.6 C 5.94 g/m*3 5.6 C 0 km/h
1402 17-01-2011 16:30:02 6.1 C 6.06 g/m*3 6.1 C 0 km/h
1403 17-01-2011 16:42:02 6.3 C 5.85 g/m*3 6.3 C 0 km/h
1404 17-01-2011 16:54:01 6.7 C 5.85 g/m*3 6.7 C 0 km/h
1405 17-01-2011 17:06:02 6.4 C 5.74 g/m*3 6.4 C 0 km/h
1406 17-01-2011 17:18:01 6.1 C 5.77 g/m*3 6.1 C 0 km/h
1407 17-01-2011 17:30:01 6.3 C 5.85 g/m*3 6.3 C 0 km/h
1408 17-01-2011 17:42:01 6.2 C 5.88 g/m*3 6.2 C 0 km/h
1409 17-01-2011 17:54:01 6 C 5.88 g/m*3 6 C 0 km/h
1410 17-01-2011 18:06:02 5.9 C 5.98 g/m*3 5.9 C 0 km/h
1411 17-01-2011 18:18:02 6 C 6.02 g/m*3 6 C 0 km/h
1412 17-01-2011 18:30:02 6 C 6.02 g/m*3 6 C 0 km/h
1413 17-01-2011 18:42:01 6 C 6.1 g/m*3 6 C 0 km/h
1414 17-01-2011 18:54:01 6 C 6.1 g/m*3 6 C 0 km/h
1415 17-01-2011 19:06:01 6 C 6.1 g/m*3 6 C 0 km/h
1416 17-01-2011 19:18:02 6.2 C 6.1 g/m*3 6.2 C 0 km/h
1417 17-01-2011 19:30:02 6.3 C 6.07 g/m*3 6.3 C 0 km/h
1418 17-01-2011 19:42:02 6.3 C 6.07 g/m*3 6.3 C 0 km/h
1419 17-01-2011 19:54:03 6.3 C 6.14 g/m*3 6.3 C 0 km/h
1420 17-01-2011 20:06:03 6.5 C 6.15 g/m*3 6.5 C 0 km/h
1421 17-01-2011 20:18:02 6.7 C 6.15 g/m*3 6.7 C 0 km/h
1422 17-01-2011 20:30:02 6.8 C 6.19 g/m*3 6.8 C 0 km/h
1423 17-01-2011 20:42:02 7.3 C 6.24 g/m*3 7.3 C 0 km/h
1424 17-01-2011 20:54:02 7.4 C 6.2 g/m*3 7.4 C 0 km/h
1425 17-01-2011 21:06:02 7.5 C 6.24 g/m*3 7.5 C 0 km/h
Sensor: Nr:Datum:Temp:Abs-Feuchte:Windchill:Wind:
Aussen-T/F 1426 17-01-2011 21:18:03 7.9 C 6.32 g/m*3 7.9 C 0 km/h
1427 17-01-2011 21:30:03 8.2 C 6.2 g/m*3 8.2 C 0 km/h
1428 17-01-2011 21:42:02 8.2 C 6.2 g/m*3 8.2 C 0 km/h
1429 17-01-2011 21:54:02 8.4 C 6.19 g/m*3 8.4 C 0 km/h
1430 17-01-2011 22:06:02 8.2 C 6.11 g/m*3 8.2 C 0 km/h
1431 17-01-2011 22:19:04 8.4 C 6.11 g/m*3 8.4 C 0 km/h
1432 17-01-2011 22:31:04 8.2 C 6.11 g/m*3 8.2 C 0 km/h
1433 17-01-2011 22:43:04 8.2 C 6.11 g/m*3 8.2 C 0 km/h
1434 17-01-2011 22:55:04 8.4 C 6.19 g/m*3 8.4 C 0 km/h
1435 17-01-2011 23:07:04 8.4 C 6.19 g/m*3 8.4 C 0 km/h
1436 17-01-2011 23:19:04 8.6 C 6.27 g/m*3 8.6 C 0 km/h
1437 17-01-2011 23:31:04 8.6 C 6.19 g/m*3 8.6 C 0 km/h
1438 17-01-2011 23:43:04 8.5 C 6.23 g/m*3 8.5 C 0 km/h
1439 17-01-2011 23:55:04 8.7 C 6.31 g/m*3 8.7 C 0 km/h
1440 18-01-2011 00:07:04 8.5 C 6.23 g/m*3 8.5 C 0 km/h
1441 18-01-2011 00:19:04 8.3 C 6.15 g/m*3 8.3 C 0 km/h
1442 18-01-2011 00:31:04 7.5 C 6 g/m*3 7.5 C 0 km/h
1443 18-01-2011 00:43:04 6.9 C 6.08 g/m*3 6.9 C 0 km/h
1444 18-01-2011 00:55:04 7 C 6.2 g/m*3 7 C 0 km/h
1445 18-01-2011 01:07:04 7.4 C 6.36 g/m*3 7.4 C 0 km/h
1446 18-01-2011 01:19:04 7.3 C 6.24 g/m*3 7.3 C 0 km/h
1447 18-01-2011 01:31:05 7.3 C 6.24 g/m*3 7.3 C 0 km/h
1448 18-01-2011 01:43:05 6.6 C 6.04 g/m*3 6.6 C 0 km/h
1449 18-01-2011 01:55:05 5.6 C 5.8 g/m*3 5.6 C 0 km/h
1450 18-01-2011 02:07:05 5.3 C 5.82 g/m*3 5.3 C 0 km/h
Sensor: Nr:Datum:Temp:Abs-Feuchte:Windchill:Wind:
Aussen-T/F 1451 18-01-2011 02:19:05 5.1 C 5.81 g/m*3 5.1 C 0 km/h
1452 18-01-2011 02:31:05 5 C 5.84 g/m*3 5 C 0 km/h
1453 18-01-2011 02:43:05 5.3 C 6.03 g/m*3 5.3 C 0 km/h
1454 18-01-2011 02:55:05 5.5 C 6.18 g/m*3 5.5 C 0 km/h
1455 18-01-2011 03:07:05 7 C 6.35 g/m*3 7 C 0 km/h
1456 18-01-2011 03:19:05 6.6 C 6.04 g/m*3 6.6 C 0 km/h
1457 18-01-2011 03:31:05 7.1 C 6.08 g/m*3 7.1 C 0 km/h
1458 18-01-2011 03:43:05 7.6 C 6.12 g/m*3 7.6 C 0 km/h
1459 18-01-2011 03:55:05 7.2 C 5.89 g/m*3 7.2 C 0 km/h
1460 18-01-2011 04:07:05 6.7 C 5.93 g/m*3 6.7 C 0 km/h
1461 18-01-2011 04:19:05 6.7 C 5.93 g/m*3 6.7 C 0 km/h
1462 18-01-2011 04:31:05 7.4 C 6.04 g/m*3 7.4 C 0 km/h
1463 18-01-2011 04:43:05 7.2 C 5.89 g/m*3 7.2 C 0 km/h
1464 18-01-2011 04:55:05 7.3 C 6 g/m*3 7.3 C 0 km/h
1465 18-01-2011 05:07:05 7.4 C 6.04 g/m*3 7.4 C 0 km/h
1466 18-01-2011 05:19:05 7.6 C 6.12 g/m*3 7.6 C 0 km/h
1467 18-01-2011 05:31:06 7.5 C 5.84 g/m*3 7.5 C 0 km/h
1468 18-01-2011 05:43:06 8 C 5.79 g/m*3 8 C 0 km/h
1469 18-01-2011 05:55:06 7.9 C 5.91 g/m*3 7.9 C 0 km/h
1470 18-01-2011 06:07:06 7.5 C 5.84 g/m*3 7.5 C 0 km/h
1471 18-01-2011 06:19:06 7.6 C 5.96 g/m*3 7.6 C 0 km/h
1472 18-01-2011 06:31:06 6.8 C 5.89 g/m*3 6.8 C 0 km/h
1473 18-01-2011 06:43:06 6.8 C 6.04 g/m*3 6.8 C 0 km/h
1474 18-01-2011 06:55:06 7.6 C 6.12 g/m*3 7.6 C 0 km/h
1475 18-01-2011 07:07:06 7 C 5.81 g/m*3 7 C 0 km/h
Sensor: Nr:Datum:Temp:Abs-Feuchte:Windchill:Wind:
Aussen-T/F 1476 18-01-2011 07:19:06 6.6 C 5.96 g/m*3 6.6 C 0 km/h
1477 18-01-2011 07:31:06 7.1 C 6.08 g/m*3 7.1 C 0 km/h
1478 18-01-2011 07:43:06 7.3 C 6.08 g/m*3 7.3 C 0 km/h
1479 18-01-2011 07:55:02 7.7 C 6.24 g/m*3 7.7 C 0 km/h
1480 18-01-2011 08:07:02 7.1 C 5.93 g/m*3 7.1 C 0 km/h
1481 18-01-2011 08:19:01 7.2 C 5.97 g/m*3 7.2 C 0 km/h
1482 18-01-2011 08:31:02 7 C 5.97 g/m*3 7 C 0 km/h
1483 18-01-2011 08:43:02 7.2 C 5.97 g/m*3 7.2 C 0 km/h
1484 18-01-2011 08:55:01 8 C 6.04 g/m*3 8 C 0 km/h
1485 18-01-2011 09:07:02 8.3 C 6.07 g/m*3 8.3 C 0 km/h
1486 18-01-2011 09:19:01 8.4 C 6.02 g/m*3 8.4 C 0 km/h
1487 18-01-2011 09:31:02 8.4 C 6.02 g/m*3 8.4 C 0 km/h
1488 18-01-2011 09:43:02 8.6 C 6.02 g/m*3 8.6 C 0 km/h
1489 18-01-2011 09:55:02 8.5 C 6.06 g/m*3 8.5 C 0 km/h
1490 18-01-2011 10:07:02 8.6 C 6.1 g/m*3 8.6 C 0 km/h
1491 18-01-2011 10:19:01 8.8 C 6.09 g/m*3 8.8 C 0 km/h
1492 18-01-2011 10:31:02 9 C 5.99 g/m*3 9 C 0 km/h
1493 18-01-2011 10:43:02 8.8 C 6.18 g/m*3 8.8 C 0 km/h
1494 18-01-2011 10:55:02 9 C 6.08 g/m*3 9 C 0 km/h
1495 18-01-2011 11:07:02 9.1 C 6.03 g/m*3 9.1 C 0 km/h
1496 18-01-2011 11:19:02 9.2 C 6.07 g/m*3 9.2 C 0 km/h
1497 18-01-2011 11:31:02 9.1 C 6.03 g/m*3 9.1 C 0 km/h
1498 18-01-2011 11:43:02 8.4 C 6.02 g/m*3 8.4 C 0 km/h
1499 18-01-2011 11:55:02 7.9 C 6.08 g/m*3 7.9 C 0 km/h
1500 18-01-2011 12:07:02 8.8 C 6.27 g/m*3 8.8 C 0 km/h
Sensor: Nr:Datum:Temp:Abs-Feuchte:Windchill:Wind:
Aussen-T/F 1501 18-01-2011 12:19:02 9.8 C 6.22 g/m*3 9.8 C 0 km/h
1502 18-01-2011 12:31:01 10 C 5.92 g/m*3 10 C 0 km/h
1503 18-01-2011 12:43:01 9.9 C 5.98 g/m*3 9.9 C 0 km/h
1504 18-01-2011 12:55:02 10 C 5.92 g/m*3 10 C 0 km/h
1505 18-01-2011 13:07:01 9.8 C 6.03 g/m*3 9.8 C 0 km/h
1506 18-01-2011 13:19:01 9.9 C 5.98 g/m*3 9.9 C 0 km/h
1507 18-01-2011 13:31:02 9.8 C 5.94 g/m*3 9.8 C 0 km/h
1508 18-01-2011 13:43:02 9.6 C 6.14 g/m*3 9.6 C 0 km/h
1509 18-01-2011 13:55:02 9.4 C 6.15 g/m*3 9.4 C 0 km/h
1510 18-01-2011 14:07:02 9.8 C 6.12 g/m*3 9.8 C 0 km/h
1511 18-01-2011 14:19:02 9.6 C 5.86 g/m*3 9.6 C 0 km/h
1512 18-01-2011 14:31:02 9.6 C 5.86 g/m*3 9.6 C 0 km/h
1513 18-01-2011 14:43:02 9.7 C 5.99 g/m*3 9.7 C 0 km/h
1514 18-01-2011 14:55:02 9.9 C 5.88 g/m*3 9.9 C 0 km/h
1515 18-01-2011 15:07:03 10.2 C 5.71 g/m*3 10.2 C 0 km/h
1516 18-01-2011 15:19:02 9.5 C 5.73 g/m*3 9.5 C 0 km/h
1517 18-01-2011 15:31:02 9.1 C 5.68 g/m*3 9.1 C 0 km/h
1518 18-01-2011 15:43:02 9.2 C 5.63 g/m*3 9.2 C 0 km/h
1519 18-01-2011 15:55:01 9.1 C 5.59 g/m*3 9.1 C 0 km/h
1520 18-01-2011 16:07:02 9.1 C 5.5 g/m*3 9.1 C 0 km/h
1521 18-01-2011 16:19:01 8.8 C 5.48 g/m*3 8.8 C 0 km/h
1522 18-01-2011 16:31:01 9.1 C 5.59 g/m*3 9.1 C 0 km/h
1523 18-01-2011 16:43:01 7.8 C 5.96 g/m*3 7.8 C 0 km/h
1524 18-01-2011 16:55:01 7.1 C 6.24 g/m*3 7.1 C 0 km/h
1525 18-01-2011 17:07:01 6.6 C 6.27 g/m*3 6.6 C 0 km/h
Sensor: Nr:Datum:Temp:Abs-Feuchte:Windchill:Wind:
Aussen-T/F 1526 18-01-2011 17:19:02 6.5 C 6.37 g/m*3 6.5 C 0 km/h
1527 18-01-2011 17:31:01 6.5 C 6.45 g/m*3 6.5 C 0 km/h
1528 18-01-2011 17:43:01 6.6 C 6.49 g/m*3 6.6 C 0 km/h
1529 18-01-2011 17:55:03 6.5 C 6.52 g/m*3 6.5 C 0 km/h
1530 18-01-2011 18:07:02 6.4 C 6.48 g/m*3 6.4 C 0 km/h
1531 18-01-2011 18:19:02 6.3 C 6.37 g/m*3 6.3 C 0 km/h
1532 18-01-2011 18:31:02 6.1 C 6.21 g/m*3 6.1 C 0 km/h
1533 18-01-2011 18:43:02 6.1 C 6.21 g/m*3 6.1 C 0 km/h
1534 18-01-2011 18:55:02 5.9 C 6.27 g/m*3 5.9 C 0 km/h
1535 18-01-2011 19:07:02 5.9 C 6.27 g/m*3 5.9 C 0 km/h
1536 18-01-2011 19:19:02 5.9 C 6.27 g/m*3 5.9 C 0 km/h
1537 18-01-2011 19:31:03 5.9 C 6.27 g/m*3 5.9 C 0 km/h
1538 18-01-2011 19:43:03 5.8 C 6.23 g/m*3 5.8 C 0 km/h
1539 18-01-2011 19:55:02 5.8 C 6.23 g/m*3 5.8 C 0 km/h
1540 18-01-2011 20:07:02 5.8 C 6.23 g/m*3 5.8 C 0 km/h
1541 18-01-2011 20:19:02 5.9 C 6.13 g/m*3 5.9 C 0 km/h
1542 18-01-2011 20:31:02 5.8 C 6.02 g/m*3 5.8 C 0 km/h
1543 18-01-2011 20:43:02 5.7 C 5.98 g/m*3 5.7 C 0 km/h
1544 18-01-2011 20:55:02 5.5 C 5.83 g/m*3 5.5 C 0 km/h
1545 18-01-2011 21:07:02 5.3 C 5.75 g/m*3 5.3 C 0 km/h
1546 18-01-2011 21:19:02 5.2 C 5.65 g/m*3 5.2 C 0 km/h
1547 18-01-2011 21:31:01 5.1 C 5.61 g/m*3 5.1 C 0 km/h
1548 18-01-2011 21:43:01 5 C 5.57 g/m*3 5 C 0 km/h
1549 18-01-2011 21:55:02 4.9 C 5.54 g/m*3 4.9 C 0 km/h
1550 18-01-2011 22:08:03 4.8 C 5.57 g/m*3 4.8 C 0 km/h
Sensor: Nr:Datum:Temp:Abs-Feuchte:Windchill:Wind:
Aussen-T/F 1551 18-01-2011 22:20:03 4.7 C 5.46 g/m*3 4.7 C 0 km/h
1552 18-01-2011 22:32:03 4.6 C 5.43 g/m*3 4.6 C 0 km/h
1553 18-01-2011 22:44:03 4.6 C 5.49 g/m*3 4.6 C 0 km/h
1554 18-01-2011 22:56:03 4.5 C 5.46 g/m*3 4.5 C 0 km/h
1555 18-01-2011 23:08:04 4.6 C 5.49 g/m*3 4.6 C 0 km/h
1556 18-01-2011 23:20:04 4.6 C 5.43 g/m*3 4.6 C 0 km/h
1557 18-01-2011 23:32:04 4.6 C 5.43 g/m*3 4.6 C 0 km/h
1558 18-01-2011 23:44:04 4.8 C 5.5 g/m*3 4.8 C 0 km/h
1559 18-01-2011 23:56:04 4.8 C 5.5 g/m*3 4.8 C 0 km/h
1560 19-01-2011 00:08:04 4.7 C 5.46 g/m*3 4.7 C 0 km/h
1561 19-01-2011 00:20:04 4.6 C 5.36 g/m*3 4.6 C 0 km/h
1562 19-01-2011 00:32:04 4.3 C 5.06 g/m*3 4.3 C 0 km/h
1563 19-01-2011 00:44:04 4.1 C 5.06 g/m*3 4.1 C 0 km/h
1564 19-01-2011 00:56:04 4.1 C 5.06 g/m*3 4.1 C 0 km/h
1565 19-01-2011 01:08:04 4 C 4.9 g/m*3 4 C 0 km/h
1566 19-01-2011 01:20:04 4 C 4.83 g/m*3 4 C 0 km/h
1567 19-01-2011 01:32:04 3.8 C 4.71 g/m*3 3.8 C 0 km/h
1568 19-01-2011 01:44:04 3.8 C 4.71 g/m*3 3.8 C 0 km/h
1569 19-01-2011 01:56:04 3.8 C 4.71 g/m*3 3.8 C 0 km/h
1570 19-01-2011 02:08:04 3.8 C 4.64 g/m*3 3.8 C 0 km/h
1571 19-01-2011 02:20:04 3.7 C 4.67 g/m*3 3.7 C 0 km/h
1572 19-01-2011 02:32:04 3.1 C 4.61 g/m*3 3.1 C 0 km/h
1573 19-01-2011 02:44:04 3.2 C 4.7 g/m*3 3.2 C 0 km/h
1574 19-01-2011 02:56:04 3.3 C 4.73 g/m*3 3.3 C 0 km/h
1575 19-01-2011 03:08:04 3.3 C 4.73 g/m*3 3.3 C 0 km/h
Sensor: Nr:Datum:Temp:Abs-Feuchte:Windchill:Wind:
Aussen-T/F 1576 19-01-2011 03:20:05 2.9 C 4.78 g/m*3 2.9 C 0 km/h
1577 19-01-2011 03:32:05 2.7 C 4.78 g/m*3 2.7 C 0 km/h
1578 19-01-2011 03:44:05 2.7 C 4.84 g/m*3 2.7 C 0 km/h
1579 19-01-2011 03:56:05 3 C 4.88 g/m*3 3 C 0 km/h
1580 19-01-2011 04:08:05 3 C 4.88 g/m*3 3 C 0 km/h
1581 19-01-2011 04:20:05 3 C 4.88 g/m*3 3 C 0 km/h
1582 19-01-2011 04:32:05 2.8 C 4.93 g/m*3 2.8 C 0 km/h
1583 19-01-2011 04:44:05 2.7 C 4.89 g/m*3 2.7 C 0 km/h
1584 19-01-2011 04:56:05 2.5 C 4.89 g/m*3 2.5 C 0 km/h
1585 19-01-2011 05:08:05 2.5 C 4.94 g/m*3 2.5 C 0 km/h
1586 19-01-2011 05:20:05 2.5 C 4.94 g/m*3 2.5 C 0 km/h
1587 19-01-2011 05:32:05 2.5 C 4.94 g/m*3 2.5 C 0 km/h
1588 19-01-2011 05:44:05 2.6 C 5.03 g/m*3 2.6 C 0 km/h
1589 19-01-2011 05:56:05 2.7 C 5.07 g/m*3 2.7 C 0 km/h
1590 19-01-2011 06:08:05 2.6 C 4.98 g/m*3 2.6 C 0 km/h
1591 19-01-2011 06:20:05 2.6 C 5.03 g/m*3 2.6 C 0 km/h
1592 19-01-2011 06:32:05 2.6 C 4.98 g/m*3 2.6 C 0 km/h
1593 19-01-2011 06:44:05 2.6 C 4.98 g/m*3 2.6 C 0 km/h
1594 19-01-2011 06:56:05 2.8 C 4.99 g/m*3 2.8 C 0 km/h
1595 19-01-2011 07:08:05 2.8 C 4.87 g/m*3 2.8 C 0 km/h
1596 19-01-2011 07:20:06 2.9 C 4.84 g/m*3 2.9 C 0 km/h
1597 19-01-2011 07:32:06 2.8 C 4.81 g/m*3 2.8 C 0 km/h
1598 19-01-2011 07:44:06 2.9 C 4.9 g/m*3 2.9 C 0 km/h
1599 19-01-2011 07:56:02 2.6 C 4.8 g/m*3 2.6 C 0 km/h
1600 19-01-2011 08:08:02 2.4 C 4.8 g/m*3 2.4 C 0 km/h
Sensor: Nr:Datum:Temp:Abs-Feuchte:Windchill:Wind:
Aussen-T/F 1601 19-01-2011 08:20:02 2.3 C 4.82 g/m*3 2.3 C 0 km/h
1602 19-01-2011 08:32:02 2.3 C 4.88 g/m*3 2.3 C 0 km/h
1603 19-01-2011 08:44:02 2.3 C 4.88 g/m*3 2.3 C 0 km/h
1604 19-01-2011 08:56:02 2.7 C 4.95 g/m*3 2.7 C 0 km/h
1605 19-01-2011 09:08:02 2.4 C 4.74 g/m*3 2.4 C 0 km/h
1606 19-01-2011 09:20:03 2.5 C 4.77 g/m*3 2.5 C 0 km/h
1607 19-01-2011 09:32:02 2.7 C 4.84 g/m*3 2.7 C 0 km/h
1608 19-01-2011 09:44:02 2.9 C 4.9 g/m*3 2.9 C 0 km/h
1609 19-01-2011 09:56:02 3 C 4.82 g/m*3 3 C 0 km/h
1610 19-01-2011 10:08:02 3.1 C 4.85 g/m*3 3.1 C 0 km/h
1611 19-01-2011 10:20:02 2.1 C 4.53 g/m*3 2.1 C 0 km/h
1612 19-01-2011 10:32:03 2 C 4.56 g/m*3 2 C 0 km/h
1613 19-01-2011 10:44:03 2.1 C 4.59 g/m*3 2.1 C 0 km/h
1614 19-01-2011 10:56:02 2.7 C 4.89 g/m*3 2.7 C 0 km/h
1615 19-01-2011 11:08:01 3.1 C 4.85 g/m*3 3.1 C 0 km/h
1616 19-01-2011 11:20:02 3.5 C 4.86 g/m*3 3.5 C 0 km/h
1617 19-01-2011 11:32:02 4 C 4.96 g/m*3 4 C 0 km/h
1618 19-01-2011 11:44:02 3.9 C 4.8 g/m*3 3.9 C 0 km/h
1619 19-01-2011 11:56:02 3.7 C 4.74 g/m*3 3.7 C 0 km/h
1620 19-01-2011 12:08:03 4.1 C 4.67 g/m*3 4.1 C 0 km/h
1621 19-01-2011 12:20:02 4.3 C 4.67 g/m*3 4.3 C 0 km/h
1622 19-01-2011 12:32:02 4.4 C 4.7 g/m*3 4.4 C 0 km/h
1623 19-01-2011 12:44:03 4.6 C 4.57 g/m*3 4.6 C 0 km/h
1624 19-01-2011 12:56:01 4.8 C 4.56 g/m*3 4.8 C 0 km/h
1625 19-01-2011 13:08:02 4.8 C 4.43 g/m*3 4.8 C 0 km/h
Sensor: Nr:Datum:Temp:Abs-Feuchte:Windchill:Wind:
Aussen-T/F 1626 19-01-2011 13:20:01 4.7 C 4.4 g/m*3 4.7 C 0 km/h
1627 19-01-2011 13:32:01 5 C 4.28 g/m*3 5 C 0 km/h
1628 19-01-2011 13:44:01 5.2 C 4.34 g/m*3 5.2 C 0 km/h
1629 19-01-2011 13:56:01 5 C 4.28 g/m*3 5 C 0 km/h
1630 19-01-2011 14:08:02 5.3 C 4.3 g/m*3 5.3 C 0 km/h
1631 19-01-2011 14:20:02 5.2 C 4.27 g/m*3 5.2 C 0 km/h
1632 19-01-2011 14:32:01 5.4 C 4.19 g/m*3 5.4 C 0 km/h
1633 19-01-2011 14:44:01 5.5 C 4.21 g/m*3 5.5 C 0 km/h
1634 19-01-2011 14:56:01 5.4 C 4.26 g/m*3 5.4 C 0 km/h
1635 19-01-2011 15:08:01 5.1 C 4.17 g/m*3 5.1 C 0 km/h
1636 19-01-2011 15:20:02 4.9 C 4.12 g/m*3 4.9 C 0 km/h
1637 19-01-2011 15:32:01 4.9 C 4.12 g/m*3 4.9 C 0 km/h
1638 19-01-2011 15:44:01 4.9 C 4.12 g/m*3 4.9 C 0 km/h
1639 19-01-2011 15:56:02 4.9 C 4.12 g/m*3 4.9 C 0 km/h
1640 19-01-2011 16:08:01 4.9 C 4.12 g/m*3 4.9 C 0 km/h
1641 19-01-2011 16:20:01 4.9 C 4.12 g/m*3 4.9 C 0 km/h
1642 19-01-2011 16:32:02 3.8 C 4.52 g/m*3 3.8 C 0 km/h
1643 19-01-2011 16:44:02 3.8 C 4.52 g/m*3 3.8 C 0 km/h
1644 19-01-2011 16:56:02 3.5 C 4.55 g/m*3 3.5 C 0 km/h
1645 19-01-2011 17:08:02 3.7 C 4.55 g/m*3 3.7 C 0 km/h
1646 19-01-2011 17:20:02 3.5 C 4.49 g/m*3 3.5 C 0 km/h
1647 19-01-2011 17:32:02 3.5 C 4.49 g/m*3 3.5 C 0 km/h
1648 19-01-2011 17:44:02 3.1 C 4.49 g/m*3 3.1 C 0 km/h
1649 19-01-2011 17:56:01 2.9 C 4.67 g/m*3 2.9 C 0 km/h
1650 19-01-2011 18:08:02 2.8 C 4.69 g/m*3 2.8 C 0 km/h
Sensor: Nr:Datum:Temp:Abs-Feuchte:Windchill:Wind:
Aussen-T/F 1651 19-01-2011 18:20:01 2.9 C 4.78 g/m*3 2.9 C 0 km/h
1652 19-01-2011 18:32:02 2.6 C 4.69 g/m*3 2.6 C 0 km/h
1653 19-01-2011 18:44:03 3.2 C 4.82 g/m*3 3.2 C 0 km/h
1654 19-01-2011 18:56:02 3.2 C 4.52 g/m*3 3.2 C 0 km/h
1655 19-01-2011 19:08:02 3.4 C 4.46 g/m*3 3.4 C 0 km/h
1656 19-01-2011 19:20:01 3.5 C 4.43 g/m*3 3.5 C 0 km/h
1657 19-01-2011 19:32:02 3.5 C 4.37 g/m*3 3.5 C 0 km/h
1658 19-01-2011 19:44:02 3 C 4.46 g/m*3 3 C 0 km/h
1659 19-01-2011 19:56:01 2.6 C 4.57 g/m*3 2.6 C 0 km/h
1660 19-01-2011 20:08:02 2.3 C 4.59 g/m*3 2.3 C 0 km/h
1661 19-01-2011 20:20:02 2.2 C 4.62 g/m*3 2.2 C 0 km/h
1662 19-01-2011 20:32:02 2.4 C 4.74 g/m*3 2.4 C 0 km/h
1663 19-01-2011 20:44:02 2.4 C 4.74 g/m*3 2.4 C 0 km/h
1664 19-01-2011 20:56:02 2.5 C 4.77 g/m*3 2.5 C 0 km/h
1665 19-01-2011 21:08:02 2.6 C 4.86 g/m*3 2.6 C 0 km/h
1666 19-01-2011 21:20:02 2.5 C 4.77 g/m*3 2.5 C 0 km/h
1667 19-01-2011 21:32:02 2.4 C 4.74 g/m*3 2.4 C 0 km/h
1668 19-01-2011 21:44:02 2.5 C 4.77 g/m*3 2.5 C 0 km/h
1669 19-01-2011 21:56:02 2.5 C 4.77 g/m*3 2.5 C 0 km/h
1670 19-01-2011 22:08:02 2.4 C 4.74 g/m*3 2.4 C 0 km/h
1671 19-01-2011 22:21:03 2.4 C 4.74 g/m*3 2.4 C 0 km/h
1672 19-01-2011 22:33:03 2.4 C 4.74 g/m*3 2.4 C 0 km/h
1673 19-01-2011 22:45:03 2.4 C 4.74 g/m*3 2.4 C 0 km/h
1674 19-01-2011 22:57:03 2.4 C 4.68 g/m*3 2.4 C 0 km/h
1675 19-01-2011 23:09:03 2.4 C 4.68 g/m*3 2.4 C 0 km/h
Sensor: Nr:Datum:Temp:Abs-Feuchte:Windchill:Wind:
Aussen-T/F 1676 19-01-2011 23:21:03 2.4 C 4.74 g/m*3 2.4 C 0 km/h
1677 19-01-2011 23:33:03 2.4 C 4.74 g/m*3 2.4 C 0 km/h
1678 19-01-2011 23:45:03 2.1 C 4.64 g/m*3 2.1 C 0 km/h
1679 19-01-2011 23:57:03 2.1 C 4.64 g/m*3 2.1 C 0 km/h

Legende:
   Min
   Max


Maximal/Minimal-Werte vom 06.01.2011 - 19.01.2011

Sensor Min Max Avg
Temp
(Aussen-T/F)
-1.1 °C
17-01-2011  08:30:02
14.7 °C
08-01-2011  14:22:02
6.37 °C
Abs-Feuchte
(Aussen-T/F)
3.81 g/m*3
06-01-2011  00:44:04
8.57 g/m*3
13-01-2011  16:50:01
5.93 g/m*3
Windchill
(Aussen-T/F)
-1.1 C
17-01-2011  08:30:02
14.7 C
08-01-2011  14:22:02
6.37 C

Die Daten stammen von einer Davis Vantage Pro 2 Wetter-Station und werden unter Linux mit der Software wview2wettercgi und aufbereitet. Alle Angaben erfolgen ohne Gewähr für ihre Vollständigkeit oder Richtigkeit.
Kontakt: Rainer Krienke krienke@uni-koblenz.de . Meine Webseiten an der Uni Koblenz oder privat.
Version: $Revision: 0.78 $